Tous vos exploits sur  Logo Planète Marathon le site 100% Marathon

Marathon de Houston (USA)              Donnez votre avis sur l'édition 2016

Le 17/01/2016 - Edition 2016 - 7801 arrivants.                                                       

Clmt. Temps Nom Prénom Club Organisme Catégorie
1 2:10:54 Burka Gebo (ETH) MElites (+)
2 2:11:05 Gebru Girmay (ETH) MElites (+)
3 2:11:53 Gedefa Birhanu (ETH) MElites (+)
4 2:12:09 Atanfu Yitayal (ETH) MElites (+)
5 2:14:11 Kozlowski Artur (POL) MElites (+)
6 2:15:08 Worku Bazu (ETH) MElites (+)
7 2:15:23 Kwemboi Duncan (KEN) MElites (+)
8 2:15:54 Vargas Daniel (MEX) M30-34 (+)
9 2:15:57 Ramos Acevedo Daverso (USA) M20-24 (+)
10 2:17:32 Ndhlovu Pardon (ZIM) MElites (+)
11 2:18:35 Jermann Tyler (USA) M20-24 (+)
12 2:18:47 Orjuela Soche Yezid Alexander (COL) M25-29 (+)
13 2:19:08 Lizano Cesar (USA) MElites (+)
14 2:19:35 Cervantes Caudillo Fernando (MEX) M25-29 (+)
15 2:19:44 Gustavo Canar (ECU) M25-29 (+)
16 2:19:47 Angel Chasi (ECU) M25-29 (+)
17 2:20:32 Canaday Sage (USA) MElites (+)
18 2:21:20 Cassidy Michael (USA) MElites (+)
19 2:21:31 Daly Daniel (USA) M30-34 (+)
20 2:21:39 Roth Austin (USA) M25-29 (+)
21 2:21:50 Cortes Santiago Rigoberto (MEX) M30-34 (+)
23 2:23:19 Neff Calum (CAN) M30-34 (+)
22 2:23:20 Antonio Eraso (ECU) M35-39 (+)
24 2:23:26 Chu Steve (USA) MElites (+)
25 2:23:37 Luna Dominguez Tomas (MEX) M40-44 (+)
26 2:23:56 Hensley Matt (USA) M25-29 (+)
27 2:24:01 Srisung Boonthung (USA) M30-34 (+)
28 2:25:09 Dewald Matthew (USA) M30-34 (+)
29 2:25:31 Marol Matt (USA) M20-24 (+)
30 2:26:05 Pacheco Masias Ferdinan (USA) M25-29 (+)
31 2:26:07 Degefa Biruktayit (ETH) FElites (+)
32 2:26:43 Verran Clint (USA) MElites (+)
33 2:27:13 Greenlaw Jerry (USA) M25-29 (+)
34 2:27:35 Weightman Lisa (AUS) FElites (+)
35 2:28:14 Ortiz Perez Daniel (MEX) M30-34 (+)
36 2:28:41 Mcarthur Lachlan (AUS) MElites (+)
37 2:28:43 Dalasa Sechale (ETH) FElites (+)
38 2:29:57 Hernandez Flores Margarita (MEX) F30-34 (+)
39 2:30:22 Hengoed Joseph (USA) M25-29 (+)
40 2:30:32 Haro Drew (USA) M30-34 (+)
41 2:31:07 Wingate Brandon (USA) M40-44 (+)
42 2:31:27 Songock William (USA) M30-34 (+)
43 2:31:33 De La Cruz Capani Jovana (PER) FElites (+)
44 2:31:42 Varela Jonnathan (CRC) M35-39 (+)
45 2:32:09 Hannah Rachel (CAN) FElites (+)
46 2:32:21 Dewitt Jonathan (USA) M25-29 (+)
47 2:32:24 Mccurdy Matthew (USA) M35-39 (+)
48 2:32:56 Vargas Juan (MEX) M35-39 (+)
49 2:33:04 Butler Jason (USA) M40-44 (+)
50 2:33:08 Bouckaert Richard (USA) M30-34 (+)
51 2:33:19 Gortel-Maciuk Agnieszka (POL) F35-39 (+)
52 2:33:19 Shone Guteni (ETH) FElites (+)
53 2:34:15 Recker Jerome (USA) M30-34 (+)
54 2:35:07 Defee Michael (USA) M40-44 (+)
55 2:35:16 Symiriotis Kyriakos (GRE) MElites (+)
56 2:35:33 Mendoza Maximo (USA) M25-29 (+)
57 2:35:35 Tuliamuk-Bolton Aliphine (KEN) FElites (+)
59 2:35:41 Raulli Chris (USA) M25-29 (+)
60 2:36:10 Washer William (USA) M25-29 (+)
61 2:36:42 Hill Alistair (CAN) M35-39 (+)
62 2:37:22 Harkins Nathan (USA) M35-39 (+)
58 2:37:25 Rodriguez David (USA) M30-34 (+)
63 2:37:46 Bell Sam (USA) M35-39 (+)
64 2:37:58 Smith Kyle (USA) M25-29 (+)
65 2:38:24 Carr Stephen (USA) M35-39 (+)
66 2:39:13 Barczak Travis (USA) M25-29 (+)
67 2:39:52 Schulten Chris (USA) M40-44 (+)
68 2:39:58 Paucar Segura Cinthya (USA) F25-29 (+)
69 2:41:21 Roberson Blake (USA) M35-39 (+)
70 2:41:35 Dakebo Ayantu (ETH) FElites (+)
71 2:41:47 Shifa Suleman (ETH) MElites (+)
72 2:41:56 Marton Dylan (USA) M20-24 (+)
73 2:42:05 Silvia Paredes (ECU) F30-34 (+)
74 2:42:05 Lawrence Peter (USA) M40-44 (+)
75 2:42:09 Vongvorachoti Jane (THA) F30-34 (+)
76 2:42:19 Calle Maria Elena (ECU) F40-44 (+)
77 2:42:32 Salgado Esmeralda Rebolledo (MEX) F25-29 (+)
78 2:42:42 Woodle Brent (USA) M30-34 (+)
79 2:43:04 Saloom Megan (USA) F25-29 (+)
80 2:43:13 Iverson Michael (USA) M45-49 (+)
81 2:43:20 Dudley Philip (USA) M30-34 (+)
82 2:43:25 Jensen Dan (USA) M20-24 (+)
83 2:43:50 Schiemann Katie (USA) F30-34 (+)
84 2:43:50 Schiemann Chris (USA) M30-34 (+)
85 2:44:08 Heerensperger Mark (USA) M35-39 (+)
86 2:44:10 Scott Amanda (USA) FElites (+)
87 2:44:16 Robillard Amy (USA) F35-39 (+)
88 2:44:19 Njeim Chirine (LIB) F30-34 (+)
89 2:44:25 Boller Caroline (USA) F40-44 (+)
91 2:44:32 Velasquez Caiza Katherine Lorena (ECU) F30-34 (+)
92 2:44:33 Torres Tony (USA) M45-49 (+)
93 2:44:38 Sopko Patrick (USA) M20-24 (+)
95 2:44:45 Thanaronnawat Natthaya (USA) F35-39 (+)
90 2:44:46 Retzlaff Chris (USA) M16-19 (+)
96 2:44:46 Chase Steve (USA) M45-49 (+)
97 2:44:51 Rodriguez Benny (USA) M35-39 (+)
94 2:44:56 Macdonald Ailsa (CAN) F35-39 (+)
99 2:45:22 Perez Faviola (MEX) FElites (+)
98 2:45:25 Rouse Gina (USA) F35-39 (+)
100 2:46:09 Fagan Brian (USA) M35-39 (+)
101 2:46:49 Richards Steve (USA) M45-49 (+)
102 2:46:51 Bertasso Karen (USA) F30-34 (+)
103 2:46:51 Rios Leilani (USA) F35-39 (+)
105 2:47:05 Pirtle-Hall Jackie (USA) F30-34 (+)
104 2:47:11 Smith Zachary (USA) M25-29 (+)
107 2:47:11 Olah Gabor (HUN) M40-44 (+)
106 2:47:19 Canan Mike (USA) M35-39 (+)
108 2:47:24 Yanko Devon (USA) F30-34 (+)
109 2:47:25 Garcia Barrios Karina Lizette (MEX) F25-29 (+)
110 2:47:25 Velez Maria (MEX) F25-29 (+)
111 2:47:26 Kelly Harriott (USA) F25-29 (+)
112 2:47:43 Slocum Josh (USA) M25-29 (+)
113 2:47:58 Coplen Greg (USA) M40-44 (+)
114 2:48:01 Tanner Melissa (USA) F30-34 (+)
115 2:48:27 Uible Elisabeth (USA) F30-34 (+)
116 2:48:28 Angeles Becky (USA) F35-39 (+)
117 2:48:32 Richardson Tara (USA) F20-24 (+)
118 2:48:36 Mendez Suanca Jenny (CRC) F35-39 (+)
119 2:48:52 Farmer Michael (USA) M30-34 (+)
120 2:48:59 Morin Aleksandr (USA) M20-24 (+)
122 2:49:31 Gatesman Travis (USA) M35-39 (+)
123 2:49:46 Richardson Janae (USA) F30-34 (+)
124 2:49:49 Norbo Carter (USA) F25-29 (+)
125 2:50:07 Power Rich (USA) M50-54 (+)
126 2:50:20 Kayda David (USA) M35-39 (+)
129 2:50:28 Miller Joyce (USA) F25-29 (+)
127 2:50:30 Vance Matthew (USA) M30-34 (+)
128 2:50:30 Oliver Matt (USA) M25-29 (+)
130 2:50:39 Munoz Luis (COL) M50-54 (+)
132 2:50:55 Heidt Aaron (CAN) M40-44 (+)
131 2:51:01 Robbins Chris (USA) M40-44 (+)
133 2:51:07 Romero Jason (USA) M45-49 (+)
136 2:51:08 Moore Omar (USA) M35-39 (+)
134 2:51:12 Schabel Michael (USA) M40-44 (+)
137 2:51:14 Higgins Lesley (USA) F35-39 (+)
121 2:51:22 Sakaguchi Akira (USA) M30-34 (+)
138 2:51:24 Douglass Eugene (USA) M30-34 (+)
139 2:51:26 Frankmann Jen (USA) F30-34 (+)
140 2:51:37 Perez Miguel (USA) M40-44 (+)
141 2:51:49 Campos Jp (USA) M30-34 (+)
142 2:51:58 Boler Kelly (USA) FElites (+)
135 2:52:08 Lord Will (USA) M16-19 (+)
145 2:52:30 Sawtelle-Zottola Mindy (USA) F40-44 (+)
144 2:52:31 Millard Joshua (USA) M35-39 (+)
149 2:52:44 Hunt Brad (USA) M30-34 (+)
150 2:52:54 Swanson William (USA) M30-34 (+)
152 2:53:14 Garza Francisco (USA) M50-54 (+)
146 2:53:18 Bishop Nathan (USA) M35-39 (+)
153 2:53:24 Navarro Rosales Yuliana (MEX) F30-34 (+)
143 2:53:29 Vilchis Javier (USA) M35-39 (+)
154 2:53:30 Xia Quanxin (USA) M35-39 (+)
155 2:53:40 Behar Jacobo (USA) M45-49 (+)
156 2:53:40 Campbell Ian (USA) M30-34 (+)
151 2:53:44 Dublin Andrew (USA) M30-34 (+)
161 2:53:59 Barcelona Matt (USA) M30-34 (+)
159 2:54:06 Parker Austin (USA) M30-34 (+)
162 2:54:06 Oviedo Jose (USA) M35-39 (+)
158 2:54:08 Bayliss Timothy (USA) M35-39 (+)
160 2:54:14 Christian Stewart (USA) M45-49 (+)
157 2:54:18 Mock Lee (USA) M40-44 (+)
164 2:54:19 Franco Froylan (USA) M45-49 (+)
163 2:54:23 Stevens Ashley (USA) M35-39 (+)
147 2:54:38 Leung Allen (USA) M20-24 (+)
148 2:54:38 Wenck Spencer (USA) M20-24 (+)
167 2:54:40 Korfhage Mike (USA) M40-44 (+)
165 2:54:41 Bergman Marc (USA) M35-39 (+)
168 2:54:47 Garcia Richard (USA) M30-34 (+)
166 2:54:55 Yemaneab David (USA) M30-34 (+)
170 2:55:12 Rychlik Garrett (USA) M45-49 (+)
172 2:55:29 Rodrigues Chris (USA) M20-24 (+)
171 2:55:31 Garza Ricardo (MEX) M35-39 (+)
173 2:55:37 Fell Joseph (USA) M25-29 (+)
169 2:55:44 Harville Jason (USA) M30-34 (+)
175 2:55:50 Stanford Joel (USA) M30-34 (+)
174 2:55:54 Cummings Alex (USA) M25-29 (+)
176 2:55:58 Chi Eric (USA) M30-34 (+)
177 2:56:02 Cohen Ben (USA) M30-34 (+)
178 2:56:06 Lozinsky Clint (USA) M35-39 (+)
179 2:56:06 Valdes Jaime (USA) M40-44 (+)
180 2:56:16 Sherf Aaron (USA) M25-29 (+)
182 2:56:27 Hodge Brenda (USA) F40-44 (+)
181 2:56:34 Kidd Sam (USA) M25-29 (+)
183 2:56:38 Kargbo Idrissa (SLE) MElites (+)
184 2:57:00 Andre Steven (USA) M25-29 (+)
186 2:57:03 Ferro Andres (USA) M40-44 (+)
185 2:57:17 Kies Mitch (USA) M35-39 (+)
191 2:58:17 Turner Curtis (USA) M30-34 (+)
192 2:58:18 Wu Zhuang (USA) M40-44 (+)
188 2:58:25 Smith Neil (USA) M40-44 (+)
189 2:58:27 Caughran Jonathan (USA) M30-34 (+)
187 2:58:29 Bachmann Stephen (USA) M25-29 (+)
194 2:58:31 Lee Patrick (USA) M40-44 (+)
199 2:58:38 Valdez Alexander (USA) M45-49 (+)
200 2:58:53 Gollins Bryan (USA) M25-29 (+)
201 2:58:59 Sanchez Andres (USA) M35-39 (+)
205 2:58:59 Roenz Manfred (USA) M45-49 (+)
206 2:58:59 Nieto Dallas (USA) M30-34 (+)
202 2:59:02 Gutierrez Octavio (USA) M35-39 (+)
203 2:59:03 Brass Curt (USA) M40-44 (+)
210 2:59:06 Grinstead Tyler (USA) M20-24 (+)
208 2:59:07 Sanchez Trevino Jose (USA) M30-34 (+)
196 2:59:08 Wolff Stephen (USA) M30-34 (+)
207 2:59:10 Rivera Sal (USA) M35-39 (+)
212 2:59:12 Enriquez Gono (USA) M30-34 (+)
214 2:59:14 Arouca Kerry (USA) F25-29 (+)
216 2:59:16 Cicchinelli Renae (USA) F35-39 (+)
198 2:59:18 Rooney Sean (USA) M40-44 (+)
211 2:59:21 Barber Brandon (USA) M30-34 (+)
217 2:59:21 Bailey Derek (USA) M30-34 (+)
215 2:59:26 Hartin John (USA) M55-59 (+)
209 2:59:27 Baird Jason (USA) M40-44 (+)
220 2:59:36 Zuniga David (USA) M35-39 (+)
222 2:59:38 Frost Matt (USA) M35-39 (+)
229 2:59:38 Newsom Aimee (USA) F30-34 (+)
218 2:59:40 Lilley Sean (USA) M40-44 (+)
223 2:59:40 Ames Kenneth (USA) M35-39 (+)
228 2:59:43 Kleczkowski Brian (USA) M40-44 (+)
226 2:59:45 Hill Brandon (USA) M30-34 (+)
233 2:59:45 Burnick Crystal (USA) F25-29 (+)
197 2:59:46 Reyes Matthew (USA) M30-34 (+)
227 2:59:48 Naimpally Rohit (USA) M25-29 (+)
232 2:59:48 Lopez Gerardo (MEX) M30-34 (+)
221 2:59:49 Hise Ryan (USA) M30-34 (+)
225 2:59:51 Runyon John (USA) M50-54 (+)
231 2:59:52 Perez Edenn (USA) M30-34 (+)
240 2:59:52 Mills-Honarvar Donna (USA) F40-44 (+)
242 2:59:52 Leidlein Hugh (USA) M55-59 (+)
230 2:59:53 Brown Ryan (USA) M20-24 (+)
235 2:59:56 Rossett Jr. Ronald (USA) M25-29 (+)
224 2:59:58 Mitro Joseph (USA) M40-44 (+)
237 2:59:59 Lee Kerry (USA) M40-44 (+)
236 3:00:00 Yoder John (USA) M40-44 (+)
234 3:00:01 Booth Adam (USA) M30-34 (+)
239 3:00:03 Zimmerman Maijaleena (USA) F35-39 (+)
241 3:00:09 Mcdaniel Brandon (USA) M30-34 (+)
243 3:00:12 Apgar Bryan (USA) M25-29 (+)
219 3:00:13 Traeger Mark (USA) M35-39 (+)
204 3:00:17 Nichols Jonathan (USA) M20-24 (+)
244 3:00:20 Brinkley Teddie (USA) M35-39 (+)
195 3:00:23 Preble Michael (USA) M25-29 (+)
245 3:00:25 Sanchez Michael (USA) M30-34 (+)
190 3:00:26 Watanabe Tetsuo (USA) M40-44 (+)
247 3:00:30 Acosta Jose (USA) M35-39 (+)
238 3:00:32 Funk Quentin (USA) M25-29 (+)
248 3:00:34 Hopper Melissa (USA) F35-39 (+)
213 3:00:36 Goodfellow Maine (USA) M30-34 (+)
250 3:00:49 Zeller Torry (USA) M40-44 (+)
249 3:00:53 Tanguay Jonathan (USA) M35-39 (+)
255 3:00:55 Forge Nicolas (USA) M45-49 (+)
254 3:01:02 Nguyen Tuan (USA) M40-44 (+)
193 3:01:08 Hunt Patrick (USA) M20-24 (+)
252 3:01:08 Bowman David (USA) M30-34 (+)
251 3:01:13 Dunn Janessa (USA) F20-24 (+)
246 3:01:17 Smith Zach (USA) M20-24 (+)
253 3:01:26 Martin Kelsey (USA) F30-34 (+)
257 3:01:27 Noel Tag (USA) M35-39 (+)
259 3:01:27 Young Jerry (USA) M45-49 (+)
258 3:01:28 Vaden Hill (USA) M35-39 (+)
260 3:01:38 Lindberg Pontus (USA) M35-39 (+)
261 3:02:00 Jones Jay (USA) M55-59 (+)
262 3:02:21 Gjertsen Jeff (USA) M25-29 (+)
265 3:02:26 Stucky Daniel (USA) M25-29 (+)
263 3:02:33 Campo Franklin (USA) M35-39 (+)
268 3:02:37 Dreher Andrew (USA) M30-34 (+)
267 3:02:38 Norwood Brent (USA) M25-29 (+)
264 3:02:40 Chaddick Andrew (USA) M30-34 (+)
272 3:02:49 Glaser Jeff (USA) M50-54 (+)
273 3:02:54 Hensley Zachary (USA) M30-34 (+)
266 3:03:03 Cordova Victor (USA) M25-29 (+)
269 3:03:05 Terracina Joe (USA) M45-49 (+)
271 3:03:08 Rodriguez Claudio (USA) M35-39 (+)
278 3:03:18 Lopez Reyes Sandra (MEX) F30-34 (+)
279 3:03:18 Perez Karina (MEX) F30-34 (+)
281 3:03:19 Mendez Edilberto (MEX) M30-34 (+)
277 3:03:32 Sarmiento Alvaro (USA) M25-29 (+)
280 3:03:33 West Al (USA) M40-44 (+)
275 3:03:35 Gill Ryan (USA) M30-34 (+)
283 3:03:40 Wedel Michael (USA) M40-44 (+)
270 3:03:47 Jones Seth (USA) M25-29 (+)
284 3:03:48 Olivares Jesus (USA) M30-34 (+)
282 3:03:53 Thai Andrew (USA) M30-34 (+)
289 3:03:59 Bennett Laura (USA) F45-49 (+)
274 3:04:01 Minisini Daniel (USA) M35-39 (+)
285 3:04:02 Kung Hsiang-Hsuan (USA) M30-34 (+)
288 3:04:09 Cotner Trae (USA) M30-34 (+)
287 3:04:23 Brown Cameron (USA) M35-39 (+)
276 3:04:25 Arana Monica Rivero (MEX) F35-39 (+)
291 3:04:27 Rasco Drew (USA) M35-39 (+)
294 3:04:27 Beaudonnet Jean-Louis (USA) M55-59 (+)
293 3:04:35 Bozarth Jeff (USA) M40-44 (+)
292 3:04:39 Alvarez Del Valle Carlos Manuel (MEX) M40-44 (+)
295 3:04:41 Thibo Eric (USA) M30-34 (+)
286 3:04:47 Moya Raymundo (USA) M20-24 (+)
297 3:04:52 Terrell Allen (USA) M45-49 (+)
296 3:04:57 Trueblood Wesley (USA) M30-34 (+)
300 3:05:21 Lissak Matt (USA) M25-29 (+)
299 3:05:23 Buitrago Fredy (USA) M40-44 (+)
304 3:05:38 Wilbanks Mitch (USA) M35-39 (+)
301 3:05:45 Brown Ian (USA) M35-39 (+)
306 3:05:46 Stoebner William (USA) M40-44 (+)
308 3:05:49 Mcguire Timothy (USA) M50-54 (+)
298 3:05:57 Kobos Phil (USA) M45-49 (+)
310 3:05:57 Handcock Tyler (USA) M35-39 (+)
309 3:06:05 Stewart Paul (USA) M35-39 (+)
307 3:06:16 Couture Timothy (USA) M40-44 (+)
303 3:06:23 Lastovica Grant (USA) M25-29 (+)
313 3:06:30 Younger Becky (USA) F25-29 (+)
302 3:06:35 Walker Lauren (USA) F30-34 (+)
315 3:06:37 Nicolay Matthew (USA) M35-39 (+)
314 3:06:42 Batig Brad (USA) M35-39 (+)
305 3:06:43 Vegas Julia (USA) F30-34 (+)
319 3:06:47 Baumgartner Stephen (USA) M40-44 (+)
325 3:06:55 Studer Nicole (USA) F30-34 (+)
321 3:07:00 Mason Brian (USA) M40-44 (+)
317 3:07:08 Flasowski Wallace (USA) M35-39 (+)
318 3:07:12 Coolidge Brian (USA) M45-49 (+)
322 3:07:16 Glaser William (USA) M45-49 (+)
327 3:07:16 Fredrich Craig (USA) M25-29 (+)
320 3:07:18 Hanna Mark (USA) M45-49 (+)
328 3:07:36 Hammers Bill (USA) M40-44 (+)
333 3:07:44 Black Tyrone (USA) M50-54 (+)
342 3:07:45 Holden Stacy (USA) F35-39 (+)
332 3:07:51 Oka Masaru (USA) M25-29 (+)
338 3:07:51 Mkhantar Hassan (USA) M50-54 (+)
341 3:07:53 Dower Iii Richard (USA) M30-34 (+)
344 3:07:54 Lopez Fernando (USA) M40-44 (+)
326 3:07:56 Pride Douglas (USA) M30-34 (+)
343 3:07:57 Thomas Aaron (USA) M35-39 (+)
335 3:08:02 Dennis Kristin (USA) F30-34 (+)
345 3:08:03 Christie Gordon (USA) M45-49 (+)
339 3:08:04 Castillo Joe (USA) M45-49 (+)
347 3:08:04 Bickley Ed (CAN) M55-59 (+)
353 3:08:06 Hughet James (USA) M30-34 (+)
349 3:08:12 Kostka Kristen (USA) F30-34 (+)
334 3:08:15 Barbee Tom (USA) M50-54 (+)
331 3:08:20 Kastes Kylie (USA) F25-29 (+)
336 3:08:21 Lee Ryan (USA) M35-39 (+)
256 3:08:28 Castro Jesse (USA) M25-29 (+)
355 3:08:34 Mcbee Lionel (USA) M40-44 (+)
359 3:08:38 Relf Ashley (USA) F30-34 (+)
337 3:08:40 Malsberger Rosalie (USA) F25-29 (+)
329 3:08:42 Peterson John (USA) M40-44 (+)
330 3:08:42 Dollas Elizabeth (USA) F35-39 (+)
366 3:08:53 Weinberg Jill (USA) F35-39 (+)
340 3:08:54 Horrell Kevin (USA) M25-29 (+)
348 3:09:00 Olszeski Aaron (USA) M25-29 (+)
356 3:09:01 Salinas John (USA) M25-29 (+)
367 3:09:02 Debruin Matthew (USA) M30-34 (+)
346 3:09:05 Ondruch Mark (USA) M40-44 (+)
352 3:09:07 Sylvester Zoltan (USA) M45-49 (+)
370 3:09:08 Duong Minh (USA) M40-44 (+)
354 3:09:15 Schahet Greg (USA) M40-44 (+)
364 3:09:15 Allen Triegue (USA) M35-39 (+)
376 3:09:16 Hatfield Jason (USA) M40-44 (+)
375 3:09:17 Escamilla Cecilio (USA) M55-59 (+)
377 3:09:26 Sobrino Riano Karen (SUI) F40-44 (+)
323 3:09:31 Chivasa Mufaro (CAN) M45-49 (+)
381 3:09:32 Schroeder Steve (USA) M50-54 (+)
350 3:09:36 Pohlkamp Jon (USA) M30-34 (+)
365 3:09:36 Willis Steve (USA) M40-44 (+)
383 3:09:40 Padon Matthew (USA) M45-49 (+)
357 3:09:41 Yeager Matthew (USA) M35-39 (+)
382 3:09:42 Isaac Felipe (BRA) M35-39 (+)
358 3:09:44 Gould Chris (USA) M35-39 (+)
360 3:09:53 Keffer Christopher (USA) M20-24 (+)
392 3:09:53 Yarnall Ryan (USA) M20-24 (+)
361 3:09:54 Nguyen Huy (USA) M25-29 (+)
393 3:09:54 Soto Magaly (USA) F35-39 (+)
386 3:10:00 Krause Philip (USA) M25-29 (+)
387 3:10:00 Chebeir Jorge (USA) M30-34 (+)
400 3:10:03 Alfuth Todd (USA) M35-39 (+)
388 3:10:10 Thames Paul (USA) M35-39 (+)
384 3:10:12 Kliewer Jeremy (USA) M30-34 (+)
389 3:10:12 Marlow Gary (USA) M50-54 (+)
374 3:10:24 Vande Vegte Jennifer (USA) F35-39 (+)
399 3:10:26 Arena Juan (MEX) M30-34 (+)
372 3:10:27 Aguirre Jr Jaime (USA) M30-34 (+)
378 3:10:27 Maples Matthew (USA) M35-39 (+)
385 3:10:27 Conley Dane (USA) M25-29 (+)
402 3:10:32 Henkel Christian (USA) M40-44 (+)
380 3:10:34 Park Jong (USA) M40-44 (+)
316 3:10:35 Maloney John (USA) M50-54 (+)
403 3:10:36 Machi Anthony (USA) M30-34 (+)
395 3:10:39 Holmes Chadwick (USA) M35-39 (+)
391 3:10:40 Rodemacher Kyle (USA) M40-44 (+)
401 3:10:40 Gao Xiaodong (USA) M35-39 (+)
394 3:10:45 Morrell Steve (USA) M50-54 (+)
398 3:10:46 Loghry Scott (USA) M35-39 (+)
404 3:10:56 Ontko Robert (USA) M25-29 (+)
311 3:10:57 Reyna Benigno (USA) M40-44 (+)
407 3:10:59 Garza Gabriel (USA) M30-34 (+)
408 3:11:08 Koester Silke (USA) F30-34 (+)
397 3:11:11 Thompson Carolyn (USA) F45-49 (+)
415 3:11:24 Cavanaugh Bradley (USA) M50-54 (+)
409 3:11:27 Mercado Jorge (USA) M40-44 (+)
416 3:11:30 Muessig Peter (USA) M30-34 (+)
419 3:11:36 Acevedo Enrique (MEX) M45-49 (+)
390 3:11:40 Belle Deon (USA) M35-39 (+)
410 3:11:41 Rosen Joseph (USA) M20-24 (+)
413 3:11:49 Belforti Gabriel (USA) M40-44 (+)
423 3:11:52 Cruise Amanda (USA) F30-34 (+)
371 3:11:57 Valle Arnold (USA) M25-29 (+)
406 3:12:00 Hancock Kevin (USA) M25-29 (+)
426 3:12:01 Blanchard Tim (USA) M40-44 (+)
420 3:12:08 Cheng Changrui (USA) M40-44 (+)
412 3:12:21 Schneider Kevin (USA) M40-44 (+)
425 3:12:21 Spiller John (USA) M45-49 (+)
433 3:12:25 Zhu Wei (USA) M30-34 (+)
418 3:12:28 Mcgee Ashley (USA) F35-39 (+)
411 3:12:29 Wellersdick Shawn (USA) M40-44 (+)
414 3:12:31 Kim Thomas (USA) M30-34 (+)
429 3:12:35 Lee Liz (USA) F30-34 (+)
396 3:12:38 Moldenhauer Matthew (USA) M30-34 (+)
379 3:12:44 Thomson Jeremey (USA) M40-44 (+)
431 3:12:45 Bogle Tammy (USA) F40-44 (+)
369 3:12:46 Olin Bonilla Jose (MEX) M40-44 (+)
324 3:12:52 Doyle Christopher (USA) M20-24 (+)
373 3:12:58 Munoz Arteaga Pablo (MEX) M50-54 (+)
439 3:13:01 Fumagalli Patrick (USA) M20-24 (+)
312 3:13:04 Benner Nicholas (USA) M30-34 (+)
427 3:13:05 Pate Jeffrey (USA) M35-39 (+)
444 3:13:06 Gaytan Agapito (USA) M50-54 (+)
421 3:13:07 Casillas Francisco (USA) M25-29 (+)
428 3:13:07 Pearson Jp (USA) M35-39 (+)
446 3:13:11 Allen Mark (USA) M45-49 (+)
424 3:13:12 Mayer Walter (USA) M35-39 (+)
432 3:13:12 Renzelman John (USA) M35-39 (+)
430 3:13:13 Hansen Thomas (USA) M35-39 (+)
438 3:13:14 Walker Taryn (USA) F40-44 (+)
443 3:13:17 Ornelis Jason (USA) M25-29 (+)
447 3:13:19 Hamre Gregory (USA) M25-29 (+)
434 3:13:29 Flint Benjamin (USA) M35-39 (+)
437 3:13:30 Swift Jamin (USA) M40-44 (+)
445 3:13:31 Campbell Wendell (USA) M45-49 (+)
453 3:13:31 Fredrich Rich (USA) M55-59 (+)
460 3:13:43 Hammervold Jerry (USA) M60-64 (+)
441 3:13:44 Harlett Laura (USA) F30-34 (+)
440 3:13:48 Stork Michael (USA) M35-39 (+)
461 3:13:48 Sanchez Humberto (USA) M50-54 (+)
455 3:13:55 Baker Kevin (USA) M40-44 (+)
448 3:13:58 Zaluckyj Matt (USA) M25-29 (+)
459 3:13:58 O'Malley Nicholas (USA) M16-19 (+)
363 3:14:05 Turolski Arkadiusz (USA) M25-29 (+)
417 3:14:14 Harvey Wynne (USA) M40-44 (+)
442 3:14:16 Glynn Matt (USA) M30-34 (+)
466 3:14:16 Kayem Zachary (USA) M25-29 (+)
457 3:14:18 Jimenez Alex (USA) M35-39 (+)
458 3:14:19 Chao Yi-Lin (USA) M40-44 (+)
449 3:14:22 Davis Brit (USA) M45-49 (+)
450 3:14:22 Wallace Jason (USA) M40-44 (+)
454 3:14:26 Izzo Matthew (USA) M25-29 (+)
452 3:14:29 Magee Dylan (USA) M20-24 (+)
362 3:14:34 Lopez Castro Jesus (MEX) M35-39 (+)
451 3:14:40 Alvarez Francisco (DOM) M40-44 (+)
470 3:14:42 Schmidt Jeffrey (USA) M35-39 (+)
475 3:14:50 Vilchis Simon (USA) M25-29 (+)
474 3:14:58 Saulino Peter (USA) M25-29 (+)
481 3:15:02 Thorson Jr. Michael (USA) M30-34 (+)
471 3:15:06 Lin John (USA) M35-39 (+)
467 3:15:09 Pinter Jeramie (USA) M35-39 (+)
456 3:15:10 Patlovich Krista (USA) F30-34 (+)
478 3:15:10 Smith Matthew (USA) M30-34 (+)
462 3:15:13 Enrico Luis (USA) M50-54 (+)
479 3:15:16 Cuddeback Jeff (USA) M55-59 (+)
480 3:15:19 Williams Bryan (USA) M35-39 (+)
422 3:15:29 Ivancik Tom (USA) M40-44 (+)
487 3:15:30 Davis Cory (USA) M40-44 (+)
491 3:15:31 Estevez Cesar (USA) M55-59 (+)
469 3:15:37 Reyes Jose (USA) M45-49 (+)
463 3:15:38 Brake Cynthia (USA) F25-29 (+)
482 3:15:45 Issendorf Chris (USA) M30-34 (+)
368 3:15:46 Ortiz Salvador (MEX) M35-39 (+)
435 3:15:46 Dischington Petter (USA) M25-29 (+)
464 3:15:50 Sizer Brooke (USA) F25-29 (+)
436 3:15:53 Blueschke Alexander (USA) M40-44 (+)
472 3:15:53 Heinila Marko (USA) M45-49 (+)
351 3:15:56 De La Garza Andrew (USA) M30-34 (+)
477 3:15:57 Mooney Adam (USA) M16-19 (+)
484 3:16:13 Golz Bryan (USA) M40-44 (+)
488 3:16:14 Rayner Josh (USA) M40-44 (+)
476 3:16:18 Sweeney Stephen (USA) M25-29 (+)
486 3:16:19 Janicek Josh (USA) M35-39 (+)
497 3:16:20 Wheeler Wesley (USA) M25-29 (+)
492 3:16:32 Palmer Luke (USA) M25-29 (+)
490 3:16:40 Thompson John (USA) M45-49 (+)
514 3:16:50 Meridji Yacine (USA) M40-44 (+)
520 3:16:51 Piper David (USA) M55-59 (+)
512 3:16:54 Martineau Ryan (USA) M25-29 (+)
465 3:17:02 Quach Dung (USA) M35-39 (+)
499 3:17:03 May Justin (USA) M30-34 (+)
513 3:17:03 Weimer Allyson (USA) F25-29 (+)
523 3:17:04 Ramirez Raul (USA) M35-39 (+)
529 3:17:06 Mangeot Patrick (USA) M50-54 (+)
500 3:17:13 Allen Greg (USA) M45-49 (+)
498 3:17:16 Velarde Garrett (USA) M25-29 (+)
510 3:17:18 Howard Frances (USA) F25-29 (+)
502 3:17:20 Keppeler Christian (USA) M35-39 (+)
505 3:17:21 Patrick Zack (USA) M40-44 (+)
493 3:17:23 Guerra Gilbert (USA) M30-34 (+)
504 3:17:26 Martone Matt (USA) M35-39 (+)
508 3:17:26 Chin Raymond (USA) M40-44 (+)
509 3:17:28 Sandoval Adam (USA) M40-44 (+)
522 3:17:33 West Kathy (USA) F40-44 (+)
503 3:17:35 Marsh Emily (USA) F35-39 (+)
536 3:17:38 Camp John (USA) M50-54 (+)
515 3:17:39 Mase Emily (USA) F30-34 (+)
483 3:17:42 Kubicek Thomas (USA) M40-44 (+)
506 3:17:42 Meek Shelby (USA) F20-24 (+)
473 3:17:43 Russell Michael (USA) M40-44 (+)
527 3:17:51 Herbert Kevin (USA) M50-54 (+)
290 3:17:58 Ortiz Vega Diego (USA) M25-29 (+)
543 3:17:58 Shandley Robert R. (USA) M50-54 (+)
519 3:18:01 Mallams Jerry (USA) M40-44 (+)
501 3:18:03 Holiday Blake (USA) M35-39 (+)
542 3:18:05 Gonzalez Alanis Arturo (MEX) M50-54 (+)
546 3:18:09 Olivarez Eugenio (USA) M25-29 (+)
516 3:18:10 Leyva Joshua (USA) M35-39 (+)
521 3:18:11 Fraske Martin (USA) M40-44 (+)
528 3:18:19 Polito Nick (USA) M45-49 (+)
524 3:18:23 Black Travis (USA) M35-39 (+)
533 3:18:23 Jilley Robert (USA) M25-29 (+)
526 3:18:28 Ioppolo Lory (USA) F35-39 (+)
550 3:18:36 Villarreal Daniel (USA) M30-34 (+)
540 3:18:39 Kirchner Brandon (USA) M20-24 (+)
554 3:18:39 Pena Cesar (USA) M35-39 (+)
534 3:18:41 Webster Victoria (USA) F30-34 (+)
532 3:18:52 Concha Ricardo (USA) M40-44 (+)
468 3:18:56 Bell Justin (USA) M35-39 (+)
538 3:19:02 Stotzer Eric (USA) M45-49 (+)
544 3:19:02 Babinat Bernie (USA) M50-54 (+)
568 3:19:11 Bishop Sarah (USA) F30-34 (+)
561 3:19:13 Sullivan Susan (USA) F35-39 (+)
571 3:19:17 Seminaro Derek (USA) M25-29 (+)
553 3:19:20 Rivera George (USA) M50-54 (+)
539 3:19:21 Williams Ryan (USA) M35-39 (+)
531 3:19:28 Bouterie Nick (USA) M30-34 (+)
545 3:19:32 Coulter Katrina (USA) F25-29 (+)
494 3:19:37 Daniels Jr Errol (USA) M35-39 (+)
551 3:19:39 Pape Peter (USA) M40-44 (+)
569 3:19:44 Lundberg Andrew (USA) M40-44 (+)
485 3:19:48 Fragoso Pastor (USA) M40-44 (+)
496 3:19:48 Byrd James (USA) M30-34 (+)
525 3:19:53 Hatler Jennifer (USA) F30-34 (+)
552 3:19:54 Perez Pablo (USA) M45-49 (+)
560 3:19:55 Chastain Jeffrey (USA) M35-39 (+)
495 3:19:57 Owallah Omondi (USA) M45-49 (+)
565 3:20:10 Shapiro Clayton (USA) M35-39 (+)
595 3:20:12 Cortes Steve (USA) M50-54 (+)
572 3:20:17 Abernathy Mack (USA) F25-29 (+)
585 3:20:18 Gonzalez Francisco (USA) M40-44 (+)
547 3:20:20 Schipperijn Peter (USA) M50-54 (+)
562 3:20:20 Truxillo Sarah (USA) F35-39 (+)
570 3:20:32 Thomason Jenny (USA) F30-34 (+)
563 3:20:41 Wille Thomas (USA) M35-39 (+)
583 3:20:44 Hernandez Jerry (USA) M40-44 (+)
564 3:20:48 Van Wyngaarden Henrita (USA) F45-49 (+)
566 3:20:49 Guthrie Karl (USA) M40-44 (+)
573 3:20:49 Vazquez Omar (USA) M30-34 (+)
557 3:20:53 Telang Mark (USA) M35-39 (+)
575 3:20:53 Raines David (USA) M50-54 (+)
591 3:20:54 Schwieterman Joe (USA) M30-34 (+)
619 3:20:54 Hernandez Tricia (USA) F35-39 (+)
603 3:20:55 Stone Kyle (USA) M45-49 (+)
586 3:20:57 Theriot Rachael (USA) F30-34 (+)
594 3:20:59 Loughnane Kevin (USA) M55-59 (+)
622 3:21:02 Murillo Luis (USA) M30-34 (+)
567 3:21:04 Venkat Subbu (USA) M50-54 (+)
582 3:21:04 Olivera Marcos (USA) M30-34 (+)
627 3:21:06 Vela Freddy (USA) M30-34 (+)
633 3:21:06 Crawford Danya (USA) F35-39 (+)
598 3:21:09 Waltman Gerald (USA) M55-59 (+)
602 3:21:10 Chidester Daniel (USA) M25-29 (+)
537 3:21:11 Hoffmeyer Matthew (USA) M25-29 (+)
624 3:21:11 Robinson Brent (USA) M35-39 (+)
607 3:21:12 Montana Edward (USA) M40-44 (+)
578 3:21:13 Brussee Michiel (NED) M45-49 (+)
579 3:21:13 Verheugen Henny (NED) M45-49 (+)
577 3:21:17 Lipizzi Erica (USA) F30-34 (+)
584 3:21:17 Cantrell Joe (USA) M30-34 (+)
587 3:21:27 Sarkis Laura (USA) F35-39 (+)
623 3:21:28 Parker Donald (USA) M30-34 (+)
590 3:21:30 Demerchant Todd (USA) M45-49 (+)
600 3:21:32 Taylor Ray (USA) M45-49 (+)
593 3:21:33 Greenberg Dan (USA) M40-44 (+)
581 3:21:34 Scott Sherry (USA) F45-49 (+)
599 3:21:42 Hayes Bruce (USA) M50-54 (+)
580 3:21:52 Kohn Stephen (USA) M25-29 (+)
643 3:21:53 Wedemeyer Russ (USA) M50-54 (+)
511 3:21:54 Griffin Mark (USA) M40-44 (+)
601 3:21:54 Pickering John (USA) M45-49 (+)
530 3:21:55 Almeida Jorge (USA) M25-29 (+)
507 3:21:57 Shiba Naoki (USA) M20-24 (+)
609 3:22:00 Schlegel Rob (USA) M45-49 (+)
535 3:22:06 Torres Juan (USA) M30-34 (+)
610 3:22:10 Guerra Joe (USA) M50-54 (+)
626 3:22:11 Hebral Jean-Philippe (USA) M35-39 (+)
640 3:22:13 Yomtov Todd (USA) M35-39 (+)
620 3:22:17 Nolan Timothy (USA) M45-49 (+)
615 3:22:18 Schenk Mark (USA) M40-44 (+)
518 3:22:19 Poetzl Karl (USA) M40-44 (+)
617 3:22:19 Grissom Eric (USA) M35-39 (+)
618 3:22:25 Cashion Andrew (USA) M25-29 (+)
635 3:22:26 Vandersteeg Chris (USA) M35-39 (+)
605 3:22:27 Gillespie Angus (NED) M50-54 (+)
631 3:22:28 Van Hoozer Mike (USA) M45-49 (+)
606 3:22:29 Kuntz Brad (USA) M30-34 (+)
629 3:22:29 Vazquez Lilia (MEX) F50-54 (+)
588 3:22:31 Verticchio Michele (USA) F35-39 (+)
597 3:22:32 De La Cruz Aaron (USA) M20-24 (+)
657 3:22:33 Murillo Gustavo (USA) M25-29 (+)
592 3:22:34 Van Dijk Arjen (NED) M40-44 (+)
632 3:22:34 Settles Chad (USA) M40-44 (+)
630 3:22:37 Upham Erica (USA) F25-29 (+)
604 3:22:38 Hernandez Danny (USA) M35-39 (+)
664 3:22:42 Via Jason (USA) M35-39 (+)
612 3:22:43 James Willie (USA) M55-59 (+)
655 3:22:48 Mihalick Adam (USA) M35-39 (+)
636 3:22:49 Rushing Brad (USA) M45-49 (+)
648 3:22:49 Arencibia David (USA) M45-49 (+)
611 3:22:51 Taylor Kate (USA) F20-24 (+)
555 3:22:52 Etheridge Eric (USA) M45-49 (+)
489 3:22:53 Sword Ruel (USA) F45-49 (+)
614 3:22:58 Blessing Ben (USA) M30-34 (+)
670 3:22:59 Caudillo Alberto (USA) M40-44 (+)
637 3:23:00 Zavinsky Emily (USA) F30-34 (+)
641 3:23:01 Thornton James (USA) M40-44 (+)
628 3:23:06 Koza Jeff (USA) M45-49 (+)
642 3:23:12 Thomas Gregory (USA) M60-64 (+)
645 3:23:15 Pendon Joe (USA) M45-49 (+)
558 3:23:17 Wilson John (USA) M45-49 (+)
613 3:23:19 Brunner Travis (USA) M30-34 (+)
656 3:23:22 Inglish Liesl (USA) F45-49 (+)
665 3:23:22 Gerber Seth (USA) M40-44 (+)
517 3:23:24 Spooner Justin (USA) M35-39 (+)
675 3:23:33 Duffy Brian (USA) M45-49 (+)
685 3:23:34 Sherry Art (USA) M30-34 (+)
541 3:23:37 Corbet Etienne (USA) M50-54 (+)
651 3:23:41 Gaillard Pamela (USA) F45-49 (+)
663 3:23:43 Rothery Richard (USA) M50-54 (+)
559 3:23:44 Golinkin Joseph (USA) M25-29 (+)
653 3:23:44 Spears Sebastian (USA) M25-29 (+)
662 3:23:46 Olalde Jesus (USA) M35-39 (+)
668 3:23:46 Bloom Miles (USA) M25-29 (+)
667 3:23:58 Cantu Marcus (USA) M30-34 (+)
549 3:24:01 (Benaglio) Gruca Jessie (USA) F25-29 (+)
649 3:24:02 Montondon Ashley (USA) M40-44 (+)
713 3:24:04 Malloy Lynn (USA) F55-59 (+)
673 3:24:05 Jones David (USA) M45-49 (+)
654 3:24:06 Kubitza Huntley (USA) F40-44 (+)
666 3:24:08 Burum Caroline (USA) F50-54 (+)
682 3:24:11 May Jenny (USA) F30-34 (+)
711 3:24:11 Fredrich Chris (USA) M25-29 (+)
616 3:24:12 Cao Hung (USA) M30-34 (+)
671 3:24:14 Cassity Gary (USA) M45-49 (+)
659 3:24:15 Garzon Eduardo (USA) M40-44 (+)
710 3:24:15 Barron Daniel (USA) M30-34 (+)
574 3:24:17 Simon Francisco (MEX) M30-34 (+)
658 3:24:17 Dunn Robert (USA) M45-49 (+)
608 3:24:20 Kowalik Megan (USA) F25-29 (+)
639 3:24:20 Griggs Alexander (USA) M25-29 (+)
681 3:24:21 Howell Bart (USA) M45-49 (+)
576 3:24:22 Martin Matthew (USA) M30-34 (+)
596 3:24:37 Espitia Alejandro (USA) M25-29 (+)
660 3:24:37 Borghino Jeff (USA) M35-39 (+)
696 3:24:37 Bruck-Renzelman Laura (USA) F35-39 (+)
679 3:24:41 Peacock Michael (USA) M45-49 (+)
674 3:24:43 Shinn Darla (USA) F40-44 (+)
693 3:24:45 Reiland David (USA) M30-34 (+)
694 3:24:46 Dennison Gregory (USA) M50-54 (+)
687 3:24:47 Velazquez Esau (USA) M40-44 (+)
684 3:24:48 Wind Sarah (USA) F30-34 (+)
699 3:24:48 Lybrand Danielle (USA) F25-29 (+)
735 3:24:48 Hurta-Crites Melissa (USA) F50-54 (+)
678 3:24:49 Mccracken Michael (USA) M35-39 (+)
683 3:24:50 Flanagan Ben (USA) M40-44 (+)
691 3:24:50 Nemoto David (USA) M50-54 (+)
589 3:24:57 Fuquene Fernando (USA) M45-49 (+)
690 3:24:57 Manterola Victor (USA) M50-54 (+)
719 3:24:57 Warnsman Eric (USA) M40-44 (+)
726 3:25:09 Thompson Beverly (USA) F35-39 (+)
700 3:25:10 Aleshire Paul (USA) M45-49 (+)
731 3:25:15 Foster Zack (USA) M35-39 (+)
695 3:25:16 Garcia Claudia (USA) F35-39 (+)
669 3:25:17 Berrones Raymond (USA) M16-19 (+)
704 3:25:23 Looney Robert (USA) M35-39 (+)
743 3:25:23 Riggins Patrick (USA) M55-59 (+)
744 3:25:23 Verret Troy (USA) M50-54 (+)
705 3:25:26 Lobley Graeme (USA) M35-39 (+)
734 3:25:29 Trent Sherry (USA) F40-44 (+)
686 3:25:31 Hudson Kevin (USA) M50-54 (+)
689 3:25:31 Knebel Zachary (USA) M30-34 (+)
548 3:25:33 Hollington Michael (USA) M30-34 (+)
652 3:25:36 Broussard Buddy (USA) M45-49 (+)
762 3:25:37 Stoll Barbara (USA) F50-54 (+)
725 3:25:43 Canales Charles (USA) M35-39 (+)
717 3:25:49 Pinnow Nour (USA) F30-34 (+)
708 3:26:00 Bosche Steven (USA) M35-39 (+)
733 3:26:03 Letzler Daniel (USA) M40-44 (+)
706 3:26:06 Sharma Virender (USA) M40-44 (+)
625 3:26:10 Flannery Kathleen (USA) F20-24 (+)
736 3:26:10 Britton Laura (USA) F35-39 (+)
715 3:26:17 Martos Luis (USA) M50-54 (+)
774 3:26:20 Hahn Robert (USA) M30-34 (+)
703 3:26:21 Bergstrom Amanda (USA) F40-44 (+)
701 3:26:22 Dawkins Erika (USA) F25-29 (+)
781 3:26:24 Chavez Luis Joaquin (MEX) M35-39 (+)
697 3:26:25 Roybal Amy (USA) F25-29 (+)
732 3:26:25 Hinze Leslie (USA) F35-39 (+)
714 3:26:27 Scarborough Smith (USA) M25-29 (+)
721 3:26:28 Presswood Melody (USA) F35-39 (+)
634 3:26:33 Peterson Christopher (USA) M35-39 (+)
661 3:26:34 Santos Marc (USA) M25-29 (+)
756 3:26:35 Jacobson Aaron (USA) M40-44 (+)
739 3:26:36 Worthman Caleb (USA) M30-34 (+)
723 3:26:38 Hall Karyn (USA) F25-29 (+)
727 3:26:39 Gonzalez Amanda (USA) F35-39 (+)
752 3:26:39 Zimpfer Beth (USA) F25-29 (+)
745 3:26:41 Kelemen Lawrence (USA) M50-54 (+)
749 3:26:43 Vanderzyl John (USA) M50-54 (+)
754 3:26:44 Striegel Sara (USA) F30-34 (+)
760 3:26:44 Stine Jason (USA) M35-39 (+)
718 3:26:45 Ayer David (USA) M35-39 (+)
757 3:26:48 Emerson Iii Harry (USA) M50-54 (+)
755 3:26:52 Torgerson Darrell (USA) M50-54 (+)
724 3:26:54 Hall Sally (USA) F45-49 (+)
794 3:26:55 Pantoja Michael (USA) M45-49 (+)
776 3:26:56 Rivera Prax (USA) M45-49 (+)
763 3:26:57 Strutton Jason (USA) M40-44 (+)
722 3:26:58 Brunk Brian (USA) M45-49 (+)
772 3:27:07 Odom Brian (USA) M40-44 (+)
638 3:27:08 Graves Lindy (USA) F35-39 (+)
644 3:27:08 Balli Alfredo (MEX) M40-44 (+)
770 3:27:10 Huff David (USA) M50-54 (+)
778 3:27:11 Kerr Lucas (USA) M25-29 (+)
738 3:27:12 Shenefelt Bradley (USA) M30-34 (+)
771 3:27:12 Tanaka Shusei (USA) M25-29 (+)
773 3:27:13 Musvee Sameed (USA) M25-29 (+)
698 3:27:15 Kwan Andy (USA) M35-39 (+)
747 3:27:18 Murphy Sheridan (USA) F35-39 (+)
814 3:27:18 Sternberg Justin (USA) M40-44 (+)
768 3:27:21 Tien Laurence (USA) M45-49 (+)
816 3:27:22 Henderson David (USA) M25-29 (+)
621 3:27:26 Morgan Sam (USA) M30-34 (+)
741 3:27:29 Homewood Thaddeus (CAN) M30-34 (+)
767 3:27:29 Taylor Hal (USA) M50-54 (+)
779 3:27:34 Gonzalez Daniel (USA) M45-49 (+)
740 3:27:37 Taylor Samantha (USA) F35-39 (+)
746 3:27:40 Donthi Sumanth (USA) M35-39 (+)
753 3:27:47 Conley Dayspring (USA) F35-39 (+)
775 3:27:47 Menendez Jessica (USA) F40-44 (+)
765 3:27:49 Jones Alan (USA) M40-44 (+)
791 3:27:57 Danos Todd (USA) M45-49 (+)
788 3:27:58 Figueroa Del Valle Lilia (MEX) F45-49 (+)
751 3:27:59 Ruocco Neil (USA) M50-54 (+)
800 3:28:03 Prevallet Craig (USA) M50-54 (+)
821 3:28:03 Rodgers Thomas (USA) M55-59 (+)
766 3:28:12 Krezeczowski Jon (USA) M30-34 (+)
792 3:28:15 Hebert Ll Elton (USA) M35-39 (+)
646 3:28:16 Ramirez Adan (USA) M20-24 (+)
801 3:28:16 Torres Melissa (USA) F25-29 (+)
680 3:28:19 Watson Andy (USA) M40-44 (+)
824 3:28:20 Jindra Joseph (USA) M40-44 (+)
784 3:28:21 Barrionuevo Natalia (USA) F40-44 (+)
761 3:28:22 Hahn Russell (USA) M55-59 (+)
822 3:28:26 Peschel Daron (USA) M45-49 (+)
802 3:28:27 Holley Bryant (USA) M40-44 (+)
786 3:28:28 Willey Mark (USA) M25-29 (+)
831 3:28:28 Humberto Gonzalez (USA) M45-49 (+)
650 3:28:30 Strahorn James (USA) M20-24 (+)
811 3:28:31 Guffey Cary (USA) M40-44 (+)
782 3:28:32 Coutee Adam (USA) M35-39 (+)
777 3:28:33 Howe Bobby (USA) M45-49 (+)
672 3:28:34 Forrest Amanda (CAN) F30-34 (+)
758 3:28:35 Stuart Tony (USA) M55-59 (+)
820 3:28:37 Montet Shaun (USA) M35-39 (+)
803 3:28:38 Ashley Amy (USA) F35-39 (+)
790 3:28:44 Guthikonda Bharat (USA) M40-44 (+)
793 3:28:45 Melnick Vicki (USA) F45-49 (+)
807 3:28:45 Helma Lance (USA) M30-34 (+)
692 3:28:46 Neubig Pete (USA) M45-49 (+)
780 3:28:51 Raap Eric (USA) M25-29 (+)
813 3:28:51 Sallee Sarah (USA) F35-39 (+)
676 3:28:56 Lee Kevin (USA) M35-39 (+)
838 3:28:59 Phan Ly (USA) M40-44 (+)
785 3:29:00 Hodge Bruce (USA) M45-49 (+)
819 3:29:02 Jimenez Raquel (USA) F30-34 (+)
815 3:29:03 Edmonds Caitlin (USA) F25-29 (+)
848 3:29:04 Younger Nathan (USA) M45-49 (+)
852 3:29:04 Lara Jose (USA) M20-24 (+)
795 3:29:05 Barton Casey (USA) F20-24 (+)
799 3:29:05 Thomas Jeff (USA) M60-64 (+)
882 3:29:06 Tonge Jacob (USA) M50-54 (+)
769 3:29:09 Perry Natalie (USA) F35-39 (+)
823 3:29:09 Nelson Andrew (USA) M45-49 (+)
881 3:29:10 Ruiz Simon (MEX) M60-64 (+)
804 3:29:13 Vaughn Shannon (USA) F30-34 (+)
789 3:29:14 Medic Enes (USA) M50-54 (+)
833 3:29:15 Hayes Andrew (USA) M25-29 (+)
874 3:29:16 Moss Avi (USA) M50-54 (+)
835 3:29:17 Williams Jeff (USA) M45-49 (+)
716 3:29:20 Miller Jeffrey (USA) M40-44 (+)
798 3:29:22 James Michael (USA) M30-34 (+)
677 3:29:23 Park Adam (USA) M20-24 (+)
737 3:29:26 Avila Silva Runer (USA) M35-39 (+)
806 3:29:27 Mosqueda Miguel (USA) M45-49 (+)
899 3:29:29 Casanova Leonardo (USA) M55-59 (+)
702 3:29:30 Jimenez Diaz Ricardo (MEX) M45-49 (+)
748 3:29:31 Acevedo Juan (USA) M30-34 (+)
834 3:29:31 Mcwhorter John (USA) M50-54 (+)
842 3:29:31 Walden Eric (USA) M25-29 (+)
886 3:29:32 Janku Filip (USA) M40-44 (+)
906 3:29:34 Hemker Robert (USA) M50-54 (+)
808 3:29:35 Matos Cristina (DOM) F50-54 (+)
810 3:29:35 Park Muge (USA) F40-44 (+)
908 3:29:35 Melcher Leroy (USA) M55-59 (+)
817 3:29:39 Bernosky Stefanie (USA) F30-34 (+)
905 3:29:39 Banes Fren-Mark (USA) M30-34 (+)
827 3:29:40 Honrath Jerod (USA) M40-44 (+)
828 3:29:41 Mattice Evan (USA) M25-29 (+)
829 3:29:41 Ortiz Jordan (USA) F25-29 (+)
924 3:29:41 Seeley Suzy (USA) F55-59 (+)
720 3:29:42 Falvey Keith (USA) M35-39 (+)
903 3:29:46 Harris Randall (USA) M50-54 (+)
836 3:29:47 Menendez Mario (USA) M40-44 (+)
688 3:29:51 Williams Benjamin (USA) M35-39 (+)
707 3:29:52 Cox Jeremy (USA) M35-39 (+)
818 3:29:55 Chennault Ty (USA) M50-54 (+)
709 3:29:56 Aguilera Luis (USA) M40-44 (+)
742 3:30:02 Wilson Taylor (USA) F25-29 (+)
887 3:30:02 Drymalla Chris (USA) M35-39 (+)
859 3:30:05 Lefelar George (USA) M25-29 (+)
843 3:30:06 Currie Jason (USA) M55-59 (+)
826 3:30:08 Reyes Gutierrez Israel Juan (MEX) M40-44 (+)
867 3:30:10 Estrada Miguel (USA) M30-34 (+)
832 3:30:12 Cutaia Marissa (USA) F25-29 (+)
853 3:30:12 Halpin Michael (USA) M45-49 (+)
839 3:30:16 Holmes Michael (USA) M50-54 (+)
759 3:30:18 Barry Ryan (USA) M40-44 (+)
849 3:30:18 Kurinsky Jerry (USA) M40-44 (+)
863 3:30:20 Matusik Danie (USA) F40-44 (+)
730 3:30:22 Bangueses Enrique (USA) M40-44 (+)
871 3:30:24 Bielewicz John (USA) M30-34 (+)
840 3:30:25 Flores Leroy (USA) M50-54 (+)
890 3:30:31 Barbuto Daniel (USA) M30-34 (+)
902 3:30:31 Cohoon Kirsten (USA) F40-44 (+)
712 3:30:34 Shaffer Patricia (USA) F35-39 (+)
847 3:30:34 Hall Elvira (USA) F25-29 (+)
856 3:30:34 Land Michael (USA) M25-29 (+)
854 3:30:35 Norosky Priscilla (USA) F25-29 (+)
841 3:30:36 Subich Joshua (USA) M30-34 (+)
960 3:30:36 Thompson Lisa (USA) F45-49 (+)
931 3:30:37 Geczik Tom (USA) M45-49 (+)
845 3:30:40 Henriquez Stefanie (USA) F25-29 (+)
860 3:30:41 Moses Adrian (USA) M35-39 (+)
956 3:30:42 Burmaster Travis (USA) M40-44 (+)
809 3:30:43 Smith Jeff (USA) M45-49 (+)
850 3:30:44 Bue Grant (USA) M55-59 (+)
907 3:30:44 Keener William (USA) M40-44 (+)
851 3:30:46 Massingill Erin (USA) F30-34 (+)
884 3:30:49 Mallory Michele (USA) F50-54 (+)
875 3:30:52 Lentz Maggie (USA) F35-39 (+)
891 3:30:54 Ruskiewicz Andy (USA) M25-29 (+)
948 3:30:56 Brake Kathryn (USA) F25-29 (+)
764 3:31:02 Kouri Justin (USA) M30-34 (+)
812 3:31:02 Hernandez Roberto (USA) M35-39 (+)
880 3:31:11 Mueller Andrea (USA) F35-39 (+)
870 3:31:14 Ford Greg (USA) M50-54 (+)
901 3:31:14 Handy Apryl (USA) F30-34 (+)
868 3:31:16 Bombach Celine (USA) F35-39 (+)
892 3:31:16 Gosmano Jeff (USA) M40-44 (+)
929 3:31:17 Griffiths Peter (USA) M45-49 (+)
885 3:31:19 Gutierrez Monica (USA) F35-39 (+)
797 3:31:23 Hildebrand Richard (USA) M40-44 (+)
877 3:31:24 Springmeyer Walter (USA) M30-34 (+)
967 3:31:24 Smith Nancy (USA) F55-59 (+)
805 3:31:25 Gorieu Olivier (USA) M40-44 (+)
916 3:31:25 Mitchell Joe (USA) M50-54 (+)
893 3:31:27 Nguyen Tuan (USA) M50-54 (+)
837 3:31:28 Moore Kenneth (USA) M25-29 (+)
846 3:31:29 Beatty Scott (USA) M25-29 (+)
922 3:31:32 Schottmiller Shaun (USA) M40-44 (+)
969 3:31:35 Izzo Paul (USA) M35-39 (+)
925 3:31:36 Leblanc Sara (USA) F35-39 (+)
894 3:31:37 Leidlein Chris (USA) M20-24 (+)
913 3:31:37 Molho Mike (USA) M40-44 (+)
896 3:31:38 Mitterling Nathan (USA) M35-39 (+)
914 3:31:38 Olvera Marisol (MEX) F35-39 (+)
918 3:31:38 Hall Mandy (USA) F35-39 (+)
862 3:31:39 Zuniga Rodrigo (USA) M35-39 (+)
888 3:31:39 Ly Kevin (USA) M40-44 (+)
897 3:31:39 Degenhardt Brent (USA) M40-44 (+)
858 3:31:40 Johnson Brandon (USA) M30-34 (+)
855 3:31:41 Paxton Jeff (USA) M25-29 (+)
904 3:31:41 Flack Ben (USA) M35-39 (+)
923 3:31:43 Sergott Neil (USA) M40-44 (+)
878 3:31:44 Lima Josivan (BRA) M40-44 (+)
932 3:31:48 Speck Brian (USA) M35-39 (+)
883 3:31:50 Guevara Ricky (USA) M40-44 (+)
912 3:31:51 Di Mauro Salvo (USA) M40-44 (+)
919 3:31:51 Bates Alexis (USA) F30-34 (+)
957 3:31:51 Mitchell Ricky (USA) M45-49 (+)
911 3:31:54 Johnson Heather (USA) F45-49 (+)
915 3:31:54 Baijal Rahul (USA) M40-44 (+)
796 3:31:55 Lagrone Jay (USA) M50-54 (+)
930 3:31:55 Jackson Lauren (USA) F30-34 (+)
898 3:31:56 Martinez Davila Cesar (MEX) M35-39 (+)
963 3:31:56 Rojo Raymundo (USA) M50-54 (+)
926 3:31:58 Axilrod Anne-Marie (USA) F25-29 (+)
1010 3:31:59 Paddon-Jones Douglas (USA) M45-49 (+)
943 3:32:00 Posejpal Randall (USA) M45-49 (+)
825 3:32:01 Taylor Paul (USA) M45-49 (+)
917 3:32:02 Cutaia Joseph (USA) M25-29 (+)
920 3:32:03 Buck Johanna (USA) F35-39 (+)
928 3:32:03 Rasco Sarah (USA) F35-39 (+)
941 3:32:06 Kipchirchir Samson (USA) M35-39 (+)
909 3:32:07 Fikes Ryan (USA) M30-34 (+)
934 3:32:10 Metcalf David (USA) M45-49 (+)
728 3:32:11 London Christi (USA) F35-39 (+)
864 3:32:11 Felts Anne (USA) F30-34 (+)
971 3:32:14 Brown Edward (USA) M30-34 (+)
900 3:32:15 Marek John (USA) M40-44 (+)
933 3:32:16 Souza Estefania (USA) F25-29 (+)
865 3:32:17 Watterson Colin (USA) M30-34 (+)
910 3:32:17 Root Michael (USA) M50-54 (+)
1013 3:32:17 Duffin Neil (USA) M55-59 (+)
1014 3:32:17 Mcmickle Stewart (USA) M45-49 (+)
647 3:32:18 Zepeda Kristyn (USA) F30-34 (+)
937 3:32:19 Robertson Wallace (USA) M55-59 (+)
953 3:32:20 Alvarez Katherine (USA) F35-39 (+)
940 3:32:21 Ray Tom (USA) M45-49 (+)
976 3:32:21 Dibella Mark (USA) M35-39 (+)
935 3:32:22 Pena Miguel (USA) M40-44 (+)
939 3:32:22 Gaviria Wilmer (USA) M40-44 (+)
968 3:32:24 Frederiksen Stina (USA) F40-44 (+)
985 3:32:28 Mahony Brid (USA) F40-44 (+)
1022 3:32:31 Martinez Auberto (USA) M45-49 (+)
973 3:32:32 Graves Justin (USA) M35-39 (+)
861 3:32:36 Walkup Patrick (USA) M35-39 (+)
950 3:32:38 Janavicus Jason (USA) M40-44 (+)
927 3:32:39 Zambrano Rachel (USA) F35-39 (+)
994 3:32:40 Pham Doan (USA) F40-44 (+)
955 3:32:42 Permenter Cara (USA) F25-29 (+)
964 3:32:43 Gomez Alma (USA) F45-49 (+)
951 3:32:46 Guzman Juan (DOM) M45-49 (+)
980 3:32:46 Baldwin Frank (USA) M45-49 (+)
879 3:32:47 Jaynes Scott (USA) M50-54 (+)
993 3:32:48 Ingram James (USA) M35-39 (+)
869 3:32:49 Robertson Jeff (USA) M35-39 (+)
1027 3:32:58 Cano Eduardo (USA) M35-39 (+)
952 3:33:05 Byford Matthew (USA) M25-29 (+)
787 3:33:10 Hammerle Mark (USA) M35-39 (+)
405 3:33:13 Currie Stephanie (USA) F30-34 (+)
961 3:33:14 Sims Scott (USA) M50-54 (+)
942 3:33:18 Leggett Justin (USA) M35-39 (+)
992 3:33:18 Cawyer John (USA) M50-54 (+)
965 3:33:19 Bizaca Tina (USA) F25-29 (+)
1015 3:33:22 Ramirez Garibaldis (USA) M50-54 (+)
946 3:33:23 Davidson Daniel (USA) M40-44 (+)
975 3:33:28 Piazza Alexander (USA) M30-34 (+)
974 3:33:30 Greving Holly (USA) F25-29 (+)
857 3:33:31 Salvador Mark (USA) M35-39 (+)
1005 3:33:31 Boas Hans (USA) M50-54 (+)
1009 3:33:35 Phillips Jonathan (USA) M35-39 (+)
1057 3:33:37 Parker David (USA) M40-44 (+)
989 3:33:41 Tyler Sarah (USA) F30-34 (+)
996 3:33:43 Greene Pamela (USA) F45-49 (+)
981 3:33:44 Woolley Lauren (USA) F35-39 (+)
1040 3:33:46 Reisman David (USA) M50-54 (+)
999 3:33:48 Smith Simon (USA) M45-49 (+)
1017 3:33:48 Tomsio Nayon (USA) M45-49 (+)
873 3:33:56 Hollanshead Alex (USA) M30-34 (+)
1023 3:33:59 Colvin Greg (USA) M45-49 (+)
1060 3:34:01 Hasty Andrew (USA) M25-29 (+)
783 3:34:02 Palomo Joe (USA) M45-49 (+)
1072 3:34:03 Garey Kevin (USA) M40-44 (+)
938 3:34:06 Soderberg Tige (USA) M40-44 (+)
1076 3:34:07 Thompson Joseph (USA) M25-29 (+)
1094 3:34:09 Castillo Roxana (USA) F50-54 (+)
1028 3:34:11 Fusi Loris (USA) F45-49 (+)
1036 3:34:11 Sotelo Sean (USA) M35-39 (+)
844 3:34:12 Eggemeyer Justin (USA) M40-44 (+)
1000 3:34:13 Ruthven Les (USA) M55-59 (+)
1064 3:34:14 Smith Michael (USA) M45-49 (+)
1097 3:34:14 Cahuich Flores Eduardo (MEX) M30-34 (+)
998 3:34:15 Yatsuzuka Toru (JPN) M45-49 (+)
1078 3:34:16 Williams Ryan (USA) M35-39 (+)
1021 3:34:19 Whatley Ragan (USA) M25-29 (+)
1048 3:34:19 Avasthi Nikhil (USA) M30-34 (+)
889 3:34:20 Barry Megan (USA) F25-29 (+)
986 3:34:22 Frazier Robert (USA) M20-24 (+)
1008 3:34:22 Hoehn John (USA) M25-29 (+)
962 3:34:25 Rowley Brendan (USA) M35-39 (+)
1099 3:34:26 Higgins Jeff (USA) M55-59 (+)
1103 3:34:30 Lee Jason (USA) M40-44 (+)
1002 3:34:31 Sousa Ademir (BRA) M40-44 (+)
990 3:34:38 Stewart Holly (USA) F45-49 (+)
988 3:34:41 Ball Erin (USA) F35-39 (+)
895 3:34:44 Hill Gerhard (USA) M35-39 (+)
1107 3:34:47 Valentino Lauren (USA) F35-39 (+)
966 3:34:52 Fowler Cliff (USA) M40-44 (+)
1003 3:34:53 Erwin Deanna (USA) F25-29 (+)
1055 3:34:53 Braun Dave (USA) M45-49 (+)
1016 3:34:54 Shapley Greg (USA) M50-54 (+)
978 3:34:55 Wieprecht Stephen (USA) M35-39 (+)
1018 3:34:56 Zhang Leslie (USA) F20-24 (+)
936 3:34:57 Bates Quentin (USA) M35-39 (+)
876 3:35:00 Hitchcock Glenn (USA) M45-49 (+)
1056 3:35:00 Koplik Frederick (USA) M50-54 (+)
1024 3:35:02 Butler Pam (USA) F55-59 (+)
1030 3:35:02 Zimmer Brandy (USA) F30-34 (+)
1059 3:35:02 Griffin Bradley (USA) M30-34 (+)
997 3:35:04 Cortes Jorge (USA) M50-54 (+)
1112 3:35:04 Khan Ilya (USA) M30-34 (+)
1004 3:35:06 Hiner Carrie (USA) F35-39 (+)
1020 3:35:08 Stepp Robert (USA) M55-59 (+)
1045 3:35:11 Sasaki Yoshiaki (USA) M55-59 (+)
872 3:35:13 Glowacki Patrick (USA) M20-24 (+)
1026 3:35:15 Sonnier Jerry (USA) M40-44 (+)
1054 3:35:17 Crouch Stewart (USA) M50-54 (+)
1034 3:35:19 Calais Mark (USA) M40-44 (+)
1124 3:35:19 Ray Rochelle (USA) F40-44 (+)
1134 3:35:21 Nekrasov Slava (USA) M45-49 (+)
1051 3:35:25 Livingston Wendy (USA) F25-29 (+)
1075 3:35:26 Gerules Mark (USA) M50-54 (+)
1065 3:35:27 Dekiouk Mohammed (USA) M50-54 (+)
1041 3:35:30 Volberding Wes (USA) M50-54 (+)
972 3:35:31 Davis Ryan (USA) M20-24 (+)
1035 3:35:32 Monolo Joseph (USA) M45-49 (+)
1053 3:35:32 Sagastegui Rebecca (USA) F25-29 (+)
1090 3:35:33 Birdsong Pat (USA) M55-59 (+)
1104 3:35:38 Jackson Roderick (USA) M50-54 (+)
1101 3:35:39 Cherry Sara (USA) F30-34 (+)
1128 3:35:39 Rietze Scott (USA) M25-29 (+)
1019 3:35:42 Roeschel Jessica (USA) F35-39 (+)
1042 3:35:42 Geilich Paul (USA) M55-59 (+)
954 3:35:45 Saidi Samir (USA) M20-24 (+)
958 3:35:47 Hoyt Jared (USA) M35-39 (+)
959 3:35:47 Biggerstaff Toni (USA) F45-49 (+)
1110 3:35:49 Lopez Ernesto (MEX) M30-34 (+)
1102 3:35:50 Glasco Brad (USA) M45-49 (+)
1073 3:35:53 Hart Charlie (USA) M55-59 (+)
1131 3:35:56 Skelton Douglas (USA) M50-54 (+)
1074 3:35:59 Valencia Alicia (USA) F35-39 (+)
1083 3:35:59 Meyer Joseph (USA) M40-44 (+)
1039 3:36:03 King Melissa (USA) F35-39 (+)
970 3:36:04 Porter Mike (USA) M45-49 (+)
1143 3:36:06 Collins Jeremiah (USA) M30-34 (+)
1082 3:36:09 Bigney Nick (USA) M35-39 (+)
1084 3:36:09 Lance Joe (USA) M55-59 (+)
1088 3:36:09 Collier Dustin (USA) M40-44 (+)
1058 3:36:10 Roth Casey (USA) M45-49 (+)
1100 3:36:11 Walden Edward (USA) M45-49 (+)
1061 3:36:13 Mccracken Mallory (USA) F30-34 (+)
979 3:36:16 Maldonado Ocampo Alonso (MEX) M35-39 (+)
1069 3:36:18 Adams Jr Isaac (USA) M55-59 (+)
1038 3:36:19 Rebollo Xabier (USA) M55-59 (+)
1081 3:36:22 Mulcahy Jeremiah (USA) M30-34 (+)
947 3:36:24 Cuervo Antero (MEX) M40-44 (+)
1122 3:36:27 Lodzinski Michael (USA) M35-39 (+)
1123 3:36:27 Moroney Gary (USA) M45-49 (+)
1068 3:36:28 Trinh Binh (CAN) M30-34 (+)
1149 3:36:29 Parada Mauricio (USA) M30-34 (+)
1029 3:36:30 Koohmaraie Sarah (USA) F30-34 (+)
1070 3:36:30 Hosi Khang (CAN) M50-54 (+)
1071 3:36:32 Ryan Nicholas (USA) M25-29 (+)
949 3:36:35 Martinez Alejandra (USA) F25-29 (+)
1043 3:36:35 Aronovitz Alexander (USA) M25-29 (+)
1049 3:36:35 Burdette Jennifer (USA) F35-39 (+)
1137 3:36:35 Lozano Ricardo (MEX) M50-54 (+)
1157 3:36:37 Mcdonald Chris (USA) M45-49 (+)
1201 3:36:37 Spiteri Jeremy (USA) M30-34 (+)
1095 3:36:39 Cordova Carlos (MEX) M40-44 (+)
1193 3:36:39 Stone Steven (USA) M45-49 (+)
1202 3:36:39 Mccabe Patrick (USA) M45-49 (+)
945 3:36:40 Piglia Scott (USA) M30-34 (+)
1114 3:36:41 Glasspoole Andrew (USA) M35-39 (+)
1130 3:36:41 Ferguson Chris (USA) M45-49 (+)
1138 3:36:44 Fisher James (USA) M35-39 (+)
1183 3:36:45 Woo Tom (USA) M55-59 (+)
1089 3:36:53 Dillen Jeffrey (USA) M30-34 (+)
1011 3:36:54 Hassel Rebecca (USA) F40-44 (+)
1093 3:36:57 Mustafa Jonatan (USA) M40-44 (+)
1052 3:36:58 Koohmaraie Bijan (USA) M25-29 (+)
1077 3:36:59 Manning Kathy (USA) F55-59 (+)
1136 3:36:59 Kilpatrick Kristen (USA) F30-34 (+)
1219 3:37:02 Keith Randall (USA) M55-59 (+)
983 3:37:04 Ibarra Pina Daniel (MEX) M45-49 (+)
1091 3:37:04 Peterson Martin (CAN) M45-49 (+)
1098 3:37:04 Young John (USA) M45-49 (+)
1156 3:37:04 Romo George (USA) M40-44 (+)
1224 3:37:04 Bonneau William (USA) M40-44 (+)
1063 3:37:05 Bray Nedra (USA) F40-44 (+)
1229 3:37:06 Herrera Brandi (USA) F35-39 (+)
1231 3:37:06 Liao Wangcai (USA) M50-54 (+)
1111 3:37:10 Chan Tiffany (USA) F25-29 (+)
1105 3:37:13 Velez Carlos (USA) M40-44 (+)
1189 3:37:15 Cai Cexun (USA) M30-34 (+)
921 3:37:17 Atena Jorge (USA) M35-39 (+)
1150 3:37:19 Freestone Benjmain (USA) M35-39 (+)
1117 3:37:20 Yang Grace (USA) F20-24 (+)
1167 3:37:21 Coalmer Mark (USA) M45-49 (+)
1168 3:37:21 Coalmer Grant (USA) M16-19 (+)
1132 3:37:22 Tudor Sarah (USA) F25-29 (+)
1001 3:37:24 Roy Randy (USA) M25-29 (+)
1161 3:37:24 Lanier Jeffrey (USA) M50-54 (+)
1119 3:37:26 Gonzalez Pino Jesus (USA) M40-44 (+)
1186 3:37:26 Wolberg Karla (MEX) F40-44 (+)
1237 3:37:27 Chatfield Alex (USA) M40-44 (+)
1244 3:37:29 Garcia Juan (USA) M60-64 (+)
1248 3:37:29 Brundage Chelsea (USA) F35-39 (+)
1086 3:37:36 Christopher Joshua (USA) M20-24 (+)
1164 3:37:40 Rush Brandon (USA) M45-49 (+)
1142 3:37:42 Duchesne Sara (USA) F40-44 (+)
1109 3:37:44 Bane Ginger (USA) F30-34 (+)
1108 3:37:46 Olles David (USA) M40-44 (+)
1127 3:37:48 Ohlemacher Paul (USA) M40-44 (+)
1225 3:37:51 Pearson Monica (USA) F30-34 (+)
1133 3:37:53 Eguia Nathan (USA) M30-34 (+)
1118 3:37:54 Mckissick Frances (USA) F50-54 (+)
1226 3:38:00 Verm Raymond (USA) M25-29 (+)
1121 3:38:02 Rosenkranz Keith (USA) M55-59 (+)
1163 3:38:02 Moon Thuy (USA) F40-44 (+)
1267 3:38:02 Torres David (USA) M50-54 (+)
1182 3:38:05 Debonis Vince (USA) M55-59 (+)
1085 3:38:08 Katz Dave (USA) M35-39 (+)
1087 3:38:08 Smith Gregory (USA) M25-29 (+)
1106 3:38:09 Gonzalez Adolfo (USA) M40-44 (+)
1116 3:38:11 Kabiri Caroline (USA) F35-39 (+)
1170 3:38:14 Dockery Dennis (USA) M50-54 (+)
866 3:38:15 Gaughan Kevin (USA) M25-29 (+)
1178 3:38:16 Dicamillo Greg (USA) M30-34 (+)
1211 3:38:16 Berman Mark (USA) M50-54 (+)
830 3:38:17 Barfield Kaytlin (USA) F20-24 (+)
1151 3:38:18 Russ Garry (USA) M55-59 (+)
1194 3:38:19 Chandrasoma Sajeewa (USA) M45-49 (+)
1214 3:38:19 Rodriguez Pam (USA) F30-34 (+)
1174 3:38:22 Halstead Amy (USA) F40-44 (+)
1175 3:38:22 Mathis Dawn (USA) F35-39 (+)
1146 3:38:24 Flanagan Conall (USA) M35-39 (+)
1147 3:38:24 Zuehlke Christine (USA) F35-39 (+)
1184 3:38:24 Billups Becky (USA) F20-24 (+)
1050 3:38:26 Brennan Christopher (USA) M25-29 (+)
729 3:38:27 Donovan James (USA) M30-34 (+)
1155 3:38:27 Sanchez Dani (USA) F35-39 (+)
1148 3:38:29 Coufal Natalie (USA) F30-34 (+)
1165 3:38:29 Plank Thomas (USA) M30-34 (+)
1135 3:38:31 Trejo Refugio (USA) M35-39 (+)
1185 3:38:32 Scruggs Chris (USA) M25-29 (+)
984 3:38:33 Tamez Armando (USA) M35-39 (+)
1062 3:38:33 Ramos Miguel (USA) M30-34 (+)
1125 3:38:35 Escamilla Francisco (USA) M50-54 (+)
1144 3:38:37 Angel Shelby (USA) F35-39 (+)
1044 3:38:39 Trotter Erva (USA) M30-34 (+)
982 3:38:43 Vargas Juan (MEX) M50-54 (+)
1152 3:38:43 Perry Aileen (USA) F45-49 (+)
750 3:38:44 Maurice Aaron (USA) M30-34 (+)
1033 3:38:47 Simon Julie (USA) F30-34 (+)
1210 3:38:54 Moreno Richard (USA) M55-59 (+)
1257 3:38:54 Mooney Sean (USA) M40877 (+)
1249 3:38:58 Nguyen Long (CAN) M50-54 (+)
1031 3:38:59 Aguilar Ruben (USA) M25-29 (+)
1302 3:38:59 Johannessen Brage (USA) M50-54 (+)
1203 3:39:06 Mclauchlin Greg (USA) M45-49 (+)
1322 3:39:06 Mak Walter (CAN) M35-39 (+)
1154 3:39:09 Kleinguetl Kevin (USA) M25-29 (+)
1188 3:39:10 Powers Sarah (USA) F25-29 (+)
1233 3:39:11 Stout Mark (USA) M45-49 (+)
1176 3:39:14 Johnson Jeffrey (USA) M30-34 (+)
1238 3:39:15 Ortiz Eduardo (USA) M45-49 (+)
991 3:39:18 Karakesisoglu Deborah (USA) F25-29 (+)
1230 3:39:19 Shora Camille (USA) F35-39 (+)
1221 3:39:20 Wilkinson Christian (USA) M40-44 (+)
1199 3:39:22 Constant David (USA) M50-54 (+)
1172 3:39:29 Borenstein Matthew (USA) M30-34 (+)
1298 3:39:29 Lipski Kevin (USA) M35-39 (+)
1079 3:39:30 Bradley Sarah (USA) F20-24 (+)
1204 3:39:31 Aguilar-Ramirez Laura (USA) F40-44 (+)
987 3:39:34 Gibson Tory (USA) M35-39 (+)
1032 3:39:37 Trudgeon Candy (USA) F35-39 (+)
1213 3:39:37 Yost Marty (USA) M55-59 (+)
1206 3:39:40 Steinsland Noralf (USA) M45-49 (+)
1080 3:39:41 Ford Bryan (USA) M35-39 (+)
1256 3:39:41 Walters Kurt (USA) M35-39 (+)
1159 3:39:42 Li Jim (USA) M55-59 (+)
1345 3:39:43 Maya Jorge (USA) M45-49 (+)
1264 3:39:45 Spragg Julie (USA) F35-39 (+)
1096 3:39:47 Kruelskie Brad (USA) M55-59 (+)
1092 3:39:48 Currant Haley (USA) F20-24 (+)
1207 3:39:50 Richardson Barry (USA) M45-49 (+)
1344 3:39:50 Macias Enrique (USA) M45-49 (+)
1216 3:39:51 Aufderheide Erin (USA) F35-39 (+)
1192 3:39:54 Mishler Gordon (USA) M55-59 (+)
1241 3:39:54 Smyk Matthew (USA) M35-39 (+)
1284 3:39:54 Hammerman Wendy (USA) F40-44 (+)
1285 3:39:54 Kilburn John (USA) M40-44 (+)
1327 3:39:54 Saikin Jon (USA) M35-39 (+)
1228 3:39:55 Nielsen Jacob (USA) M45-49 (+)
1255 3:39:55 Rohrlich Rhonda (USA) F35-39 (+)
1195 3:39:57 Niimi Toshiki (USA) M20-24 (+)
1236 3:39:57 Hansen Kurt (USA) M50-54 (+)
1270 3:40:00 Harrington Jim (USA) M50-54 (+)
1232 3:40:01 Nagle John (USA) M50-54 (+)
1271 3:40:01 Vences Jr. Carlos (USA) M25-29 (+)
1266 3:40:02 Carr Bill (USA) M60-64 (+)
1153 3:40:04 Moyer Zachary (USA) M25-29 (+)
1140 3:40:06 Trueman Kenneth (CAN) M45-49 (+)
1205 3:40:07 Grochowalski Kristin (USA) F35-39 (+)
1196 3:40:10 Nikmard Chelsea (USA) F25-29 (+)
1198 3:40:10 Sheppard Soen (USA) M40-44 (+)
1200 3:40:10 Kohn Dale (USA) M55-59 (+)
1115 3:40:12 Lajaunie Casey (USA) M35-39 (+)
1191 3:40:14 Easton Allison (USA) F35-39 (+)
1246 3:40:14 Boyd Bruce (USA) M60-64 (+)
1334 3:40:17 Mirabella Robert (USA) M55-59 (+)
1364 3:40:17 Ware Crystal (USA) F30-34 (+)
1245 3:40:18 Martinez Anthony (USA) M35-39 (+)
1220 3:40:19 Curry Becka (USA) F40-44 (+)
1260 3:40:19 Evans William (USA) M55-59 (+)
1160 3:40:20 Torgersen Jan (USA) M50-54 (+)
1258 3:40:20 Bookstaff Howard (USA) M50-54 (+)
1126 3:40:21 Guillen Diana (USA) F30-34 (+)
1247 3:40:21 Friedman Delton (USA) M55-59 (+)
1277 3:40:23 Novi Aldo (USA) M40-44 (+)
1288 3:40:23 Payne Cheri (USA) F40-44 (+)
1273 3:40:24 Hammond Irma (USA) F45-49 (+)
1197 3:40:26 Mccabe Teresa (USA) F25-29 (+)
1300 3:40:26 Mills Laura (USA) F35-39 (+)
1325 3:40:27 Rauch Kimberly (USA) F40-44 (+)
1262 3:40:28 Garza Eva (MEX) F40-44 (+)
1208 3:40:29 Blair Steven (USA) M25-29 (+)
1286 3:40:30 Anderson Lance (USA) M50-54 (+)
1066 3:40:32 Rogowski Elena (USA) F20-24 (+)
1067 3:40:32 Anderson Zachary (USA) M25-29 (+)
1046 3:40:38 Rojas Perez Felipe (MEX) M55-59 (+)
1313 3:40:40 Walker James (USA) M55-59 (+)
1355 3:40:42 Eisele Jeff (USA) M45-49 (+)
1251 3:40:44 Zapata Gina (USA) F30-34 (+)
1263 3:40:47 Arriola Jr Francisco (USA) M55-59 (+)
1353 3:40:47 Ginsberg Dian (USA) F50-54 (+)
1252 3:40:48 Smith Aaron (USA) M30-34 (+)
1261 3:40:48 Burke Trey (USA) M50-54 (+)
1362 3:40:49 Nash Jeff (USA) M50-54 (+)
1321 3:40:51 Harwell Roddy (USA) M25-29 (+)
1187 3:40:52 Castillo Pedro (MEX) M40-44 (+)
1047 3:40:53 Ramos Antonia (USA) F35-39 (+)
1209 3:40:53 Priest Kyle (USA) M35-39 (+)
1222 3:40:53 Elwassimy Mohamed (USA) M40-44 (+)
1319 3:40:55 Vega Orlando (USA) M30-34 (+)
1235 3:40:56 Daniels Jana (USA) F35-39 (+)
1391 3:40:56 Welsch Heather (USA) F40877 (+)
1259 3:40:58 Cooley Jami (USA) F35-39 (+)
1333 3:40:58 Solera Joshua (USA) M30-34 (+)
1283 3:40:59 Orphanides Greg (USA) M35-39 (+)
1280 3:41:01 Brastrom Paul (USA) M16-19 (+)
1338 3:41:02 Economos Paul (USA) M40-44 (+)
1265 3:41:05 Shipman Monica (USA) F35-39 (+)
1312 3:41:13 Lucente Carlin (USA) F30-34 (+)
1380 3:41:13 Branham John (USA) M35-39 (+)
995 3:41:14 Robinson Matthew (USA) M35-39 (+)
1290 3:41:17 Stewart Kaile (USA) F20-24 (+)
1293 3:41:18 Stewart Alison (USA) F50-54 (+)
1405 3:41:19 Hanley Mark (USA) M30-34 (+)
944 3:41:22 Madanay Farrah (USA) F25-29 (+)
1296 3:41:23 Esler Jerry (USA) M55-59 (+)
1339 3:41:24 Gutierrez Maurilio (USA) M60-64 (+)
1376 3:41:27 Lupascu Sorin (USA) M25-29 (+)
1129 3:41:28 Ojeda Chris (USA) M25-29 (+)
1379 3:41:29 Patin Ryan (USA) M25-29 (+)
1179 3:41:30 Morcombe Barbara (USA) F30-34 (+)
1120 3:41:31 Fortner Eric (USA) M40-44 (+)
1307 3:41:32 Puisieux Yves (USA) M55-59 (+)
1278 3:41:33 Leavens Jamie (USA) M35-39 (+)
1181 3:41:35 Grau James (USA) M55-59 (+)
1190 3:41:37 Williams Jessica (USA) F30-34 (+)
1301 3:41:38 Linder Rebecca (USA) F25-29 (+)
1315 3:41:39 Bizaca Zarko (USA) M55-59 (+)
1291 3:41:41 Smits Juka (USA) F45-49 (+)
1297 3:41:42 Chau-Tran Vi (USA) F35-39 (+)
1357 3:41:42 Roberton Jacalyn (USA) F35-39 (+)
1268 3:41:43 Hadera Daniel (USA) M40-44 (+)
1292 3:41:43 Graff Megan (USA) F25-29 (+)
1365 3:41:44 Phenix Lindsay (USA) F25-29 (+)
1425 3:41:46 Landeros Claudia (USA) F40-44 (+)
1145 3:41:49 Madey Les (USA) M55-59 (+)
1306 3:41:52 Stanford Becky (USA) F30-34 (+)
1113 3:41:53 Crabtree Travis (USA) M40-44 (+)
1324 3:41:53 Feaga Michael (USA) M30-34 (+)
1274 3:41:54 Dunagan Adam (USA) M40-44 (+)
1314 3:41:55 Graves Ken (USA) M50-54 (+)
556 3:41:56 Vega Leyva Lenart (USA) M35-39 (+)
1431 3:41:56 Sabbagh Mohammed (USA) M50-54 (+)
1320 3:41:57 Rowley Rachel (USA) F40-44 (+)
1330 3:41:58 Brown Michael (USA) M50-54 (+)
1360 3:41:58 Galle Michael (USA) M50-54 (+)
1212 3:41:59 Pasquini David (USA) M25-29 (+)
1340 3:42:01 Meloy Elizabeth (USA) F35-39 (+)
1173 3:42:03 Tirrell Jamie (USA) F25-29 (+)
1295 3:42:03 Riggs Kim (USA) F40-44 (+)
1227 3:42:04 Komatsu Keishi (USA) M30-34 (+)
1454 3:42:06 Zapeta Jax Marvin (GUA) M35-39 (+)
1180 3:42:09 Schmelzinger David (USA) M40-44 (+)
1162 3:42:10 Velazquez-Rivera Eric (MEX) M35-39 (+)
1223 3:42:11 Humphrey Melanie (USA) F40-44 (+)
1253 3:42:11 Denton Kyle (USA) M25-29 (+)
1326 3:42:11 Lichnovsky Larry (USA) M65-69 (+)
1308 3:42:12 Thomas Michelle (USA) F45-49 (+)
1006 3:42:16 Mille Crystal (USA) F25-29 (+)
1275 3:42:16 Johnson Thomas (USA) M50-54 (+)
1396 3:42:16 Nielsen Timothy (USA) M45-49 (+)
1279 3:42:17 Zver John (USA) M35-39 (+)
1381 3:42:18 Jansen Natalie (USA) F25-29 (+)
1392 3:42:18 Borella Scott (USA) M35-39 (+)
1336 3:42:19 Chamness Caroline (USA) F50-54 (+)
1337 3:42:20 Vargas Alonso (USA) M40-44 (+)
1025 3:42:22 Holloway Ryan (USA) M30-34 (+)
1037 3:42:23 Clements Jordan (USA) M20-24 (+)
1445 3:42:24 Schneck Darren (USA) M35-39 (+)
1370 3:42:27 Roche Adele (GBR) F55-59 (+)
1287 3:42:28 Henderson Wallace (USA) M50-54 (+)
1332 3:42:29 Smits Jan (USA) M50-54 (+)
1139 3:42:31 Krupowicz Marcin (POL) M30-34 (+)
1318 3:42:31 Neumann Daniel (USA) M40-44 (+)
977 3:42:33 Pan Yan (USA) M40-44 (+)
1311 3:42:34 Hill Jeffrey (USA) M50-54 (+)
1323 3:42:37 Anderson Angela (CAN) F40-44 (+)
1352 3:42:41 Espree Orrell (USA) M45-49 (+)
1166 3:42:43 Vargas Marcos (USA) M35-39 (+)
1158 3:42:48 Rizo Adrian (USA) M35-39 (+)
1361 3:42:52 Miller James (USA) M45-49 (+)
1171 3:42:53 Obsta Megan (USA) F25-29 (+)
1269 3:42:54 Barnhart Gregory (USA) M50-54 (+)
1395 3:42:56 Thompson Landi (USA) F30-34 (+)
1452 3:42:59 Mckay Timothy (USA) M45-49 (+)
1446 3:43:04 Ly Sylvia (USA) F30-34 (+)
1346 3:43:05 Guerra Rousse Francisco (MEX) M35-39 (+)
1254 3:43:07 Castillo-Cevallos Pablo (USA) M40-44 (+)
1374 3:43:07 Meyers Michael (USA) M50-54 (+)
1402 3:43:07 Beattie Jennifer (USA) F35-39 (+)
1400 3:43:09 Agnew Mary (USA) F30-34 (+)
1387 3:43:11 Haffner Lauren (USA) F20-24 (+)
1436 3:43:14 Morgan Matthew (USA) M45-49 (+)
1234 3:43:15 Williamson James (USA) M25-29 (+)
1422 3:43:16 Foskett Justin (USA) M35-39 (+)
1375 3:43:17 Childs Curtis (USA) M50-54 (+)
1440 3:43:20 Day David (USA) M55-59 (+)
1366 3:43:21 Leonardi Sergio (USA) M45-49 (+)
1281 3:43:22 Collmorgen Connie (USA) F50-54 (+)
1310 3:43:23 Deleon Yessenia (USA) F35-39 (+)
1367 3:43:23 Johnson Laura (USA) F35-39 (+)
1404 3:43:25 Lovell Michael (USA) M50-54 (+)
1383 3:43:28 Cravens Jaclyn (USA) F30-34 (+)
1390 3:43:28 Reforma Lee (USA) M30-34 (+)
1441 3:43:29 Bray Peter (USA) M45-49 (+)
1388 3:43:30 Johns Justin (USA) M30-34 (+)
1369 3:43:32 Williams Jessica (USA) F35-39 (+)
1424 3:43:35 Curry Steven (USA) M25-29 (+)
1272 3:43:36 Colunga Arnold (USA) M40-44 (+)
1243 3:43:37 Zaksheske Daniel (USA) M25-29 (+)
1413 3:43:38 Hyder Scott (USA) M25-29 (+)
1309 3:43:41 Steele Shannon (USA) F45-49 (+)
1368 3:43:44 Hirt Carol (USA) F30-34 (+)
1393 3:43:46 Thoreen James (USA) M25-29 (+)
1294 3:43:47 Davis Justin (USA) M35-39 (+)
1358 3:43:51 Guzzi Davide (USA) M45-49 (+)
1421 3:43:52 Corn Alison (USA) F25-29 (+)
1519 3:43:53 Gonzalez Jose (MEX) M45-49 (+)
1516 3:43:54 Sopchak Ben (USA) M60-64 (+)
1012 3:43:56 Ramirez Thomas (USA) M30-34 (+)
1403 3:43:57 Hilger Kristine (USA) F40-44 (+)
1177 3:43:59 Vrolijk Peter (USA) M55-59 (+)
1430 3:44:02 Griesbach Chad (USA) M20-24 (+)
1501 3:44:02 Shah Atul (USA) M45-49 (+)
1386 3:44:04 Harwell Mark (USA) M55-59 (+)
1540 3:44:10 Luna Andres (USA) M35-39 (+)
1398 3:44:11 Chernoff Lisa (USA) F35-39 (+)
1472 3:44:12 Yamazaki Tanabe Elisa (MEX) F35-39 (+)
1432 3:44:17 Gerbozy Zachary (USA) M35-39 (+)
1410 3:44:20 Heintz Kelly (USA) F40-44 (+)
1356 3:44:23 Messerschmidt Michael (USA) M45-49 (+)
1489 3:44:23 Bordelon Bradley (USA) M35-39 (+)
1414 3:44:24 Garcia Nestor (COL) M60-64 (+)
1299 3:44:25 O'Brien-Nolan Jacqueline (USA) F50-54 (+)
1459 3:44:25 Trotter Paul (USA) M60-64 (+)
1532 3:44:26 Leroy Felicia (USA) F35-39 (+)
1426 3:44:27 Fischer Kelly (USA) F40-44 (+)
1439 3:44:27 Labban Kevin (USA) M40-44 (+)
1561 3:44:27 Korsgard Ryan (USA) M40-44 (+)
1420 3:44:28 Walsh Thomas (USA) M45-49 (+)
1455 3:44:28 Chacko Bijou (USA) M45-49 (+)
1401 3:44:29 Gentil Christine (USA) F40-44 (+)
1442 3:44:34 Shamblen David (USA) M50-54 (+)
1354 3:44:36 Campbell Kris (USA) F40-44 (+)
1415 3:44:42 Rosenbaum Ernest (USA) M45-49 (+)
1412 3:44:45 Gunther Roland (USA) M30-34 (+)
1141 3:44:47 Garcia Robert (USA) M40-44 (+)
1451 3:44:48 Allen Chris (USA) M45-49 (+)
1408 3:44:51 Engquist Kate (USA) F25-29 (+)
1423 3:44:51 Long Gregg (USA) M60-64 (+)
1382 3:44:52 Machula Mike (USA) M45-49 (+)
1409 3:44:52 Johnson James (USA) M45-49 (+)
1343 3:44:53 Van Wie Victoria (USA) F45-49 (+)
1347 3:44:53 Adachi Ryota (USA) M30-34 (+)
1394 3:44:53 De Los Santos Jessica (USA) F35-39 (+)
1469 3:44:54 Galvan Hernandez Jose Emiliano (MEX) M40-44 (+)
1399 3:44:55 Anzalota Tommy (USA) M40-44 (+)
1316 3:44:56 Natoli James (USA) M16-19 (+)
1397 3:44:56 Tiansay Raul (USA) M50-54 (+)
1468 3:44:56 Ekeberg Eirin (USA) F40-44 (+)
1492 3:44:57 Gonzalez Genaro (MEX) M40-44 (+)
1385 3:44:59 Painter David (USA) M55-59 (+)
1417 3:45:00 Horozovic Emsud (USA) M50-54 (+)
1304 3:45:01 Koelbli Rob (CAN) M55-59 (+)
1449 3:45:01 Ohno Fumihiro (USA) M30-34 (+)
1444 3:45:02 Wilson Nurrie (USA) F25-29 (+)
1479 3:45:02 Newcomb Lauren (USA) F25-29 (+)
1559 3:45:03 Walton Adam (USA) M35-39 (+)
1328 3:45:05 Ruediger Erik (USA) M25-29 (+)
1490 3:45:06 Hunter Todd (USA) M45-49 (+)
1217 3:45:08 Culbert Wesley (USA) M25-29 (+)
1574 3:45:08 Bourque Chris (USA) M35-39 (+)
1565 3:45:11 Kirchhoff Andy (USA) M30-34 (+)
1513 3:45:12 Movroydis Paul (USA) M55-59 (+)
1242 3:45:13 Kilianski Joseph (USA) M25-29 (+)
1427 3:45:14 Souders Roger (USA) M55-59 (+)
1504 3:45:16 Rego Ray (USA) M50-54 (+)
1462 3:45:18 Watson Haley (USA) F35-39 (+)
1463 3:45:19 Watson Jason (USA) M40-44 (+)
1329 3:45:22 Lamantia Anthony (USA) M20-24 (+)
1535 3:45:22 Shapiro Stacey (USA) F40-44 (+)
1464 3:45:23 Zwickel Jonathan (USA) M50-54 (+)
1419 3:45:26 Perez Ruben (USA) M45-49 (+)
1524 3:45:27 Iezzoni Timothy (USA) M25-29 (+)
1482 3:45:28 Cheshire Ashleih (USA) F35-39 (+)
1456 3:45:29 Winchester Nancy (CAN) F45-49 (+)
1485 3:45:35 Gonzalez Lisa (USA) F45-49 (+)
1406 3:45:36 Bowden Gene (USA) M50-54 (+)
1484 3:45:37 Hunter Anh (USA) F40-44 (+)
1503 3:45:39 Sangalis Jeff (USA) M55-59 (+)
1418 3:45:43 Hufford Jeffrey (USA) M45-49 (+)
1377 3:45:44 Oudinot Cedric (USA) M35-39 (+)
1473 3:45:45 Rice Rivers (USA) F25-29 (+)
1465 3:45:47 Yuan Jay (USA) M35-39 (+)
1515 3:45:48 Herrin Nikki (USA) F40-44 (+)
1491 3:45:49 Melendez Gladis (USA) F35-39 (+)
1348 3:45:51 Pulsipher Dalton (USA) M35-39 (+)
1250 3:45:53 Heath Bradley (USA) M25-29 (+)
1475 3:45:53 Garcia Rosy (MEX) F35-39 (+)
1481 3:45:56 Garcia Christine (USA) F40-44 (+)
1342 3:45:59 Mambretti Natalie (USA) F25-29 (+)
1587 3:45:59 Staudt Mark (USA) M35-39 (+)
1609 3:45:59 Williams Daniel (USA) M30-34 (+)
1466 3:46:00 Alpard Jennifer (USA) F45-49 (+)
1521 3:46:00 Smith David (USA) M20-24 (+)
1523 3:46:00 Ringer Scott (USA) M50-54 (+)
1435 3:46:02 Miller Chaz (USA) M25-29 (+)
1568 3:46:02 Kelley James (USA) M50-54 (+)
1480 3:46:03 Rodriguez Carlos (USA) M45-49 (+)
1282 3:46:04 Van Adrichem Max (USA) M25-29 (+)
1529 3:46:04 Smith Jen (USA) F40-44 (+)
1629 3:46:07 Saldana Rick (USA) M50-54 (+)
1512 3:46:09 Park David (USA) M65-69 (+)
1602 3:46:10 Carmichael Kelly (USA) M50-54 (+)
1448 3:46:11 Mcgill Michelle (USA) F45-49 (+)
1505 3:46:17 Ryza Veronika (USA) F30-34 (+)
1517 3:46:18 Foley Heather (USA) F30-34 (+)
1601 3:46:21 Keathley Stephanie (USA) F40-44 (+)
1651 3:46:22 Rudolph Marilu (USA) F30-34 (+)
1437 3:46:23 Manuel Stanley (USA) M55-59 (+)
1555 3:46:23 Paylor Rogerich (USA) M40-44 (+)
1331 3:46:24 Kellerman Frances (USA) F25-29 (+)
1497 3:46:26 Stubbe Dorene (USA) F40-44 (+)
1542 3:46:26 Harvie Ben (USA) M65-69 (+)
1544 3:46:26 Beard Jordan (USA) M25-29 (+)
1552 3:46:31 Mankekar Durgesh (USA) M35-39 (+)
1525 3:46:32 Cork Chelsy (USA) F25-29 (+)
1447 3:46:35 Mike Andrew (TRI) M40-44 (+)
1539 3:46:39 Alvarez Cesar (USA) M35-39 (+)
1554 3:46:40 Atle Olov (USA) M40-44 (+)
1660 3:46:44 Casady Jason (USA) M20-24 (+)
1562 3:46:49 Upchurch Rebecca (USA) F40-44 (+)
1520 3:46:51 Brown Robert (USA) M55-59 (+)
1528 3:46:51 Racine Kat (USA) F20-24 (+)
1545 3:46:51 Martin David (USA) M25-29 (+)
1335 3:46:54 Zand Jamie (USA) F35-39 (+)
1589 3:46:58 Holland Derrick (USA) M40-44 (+)
1611 3:47:00 Stein Kenneth (USA) M30-34 (+)
1350 3:47:01 Wittig Jeff (USA) M45-49 (+)
1363 3:47:01 Bradley Bryant (USA) M25-29 (+)
1438 3:47:07 Aparicio Jaime (USA) M35-39 (+)
1695 3:47:09 Cavada Alamar (USA) F30-34 (+)
1534 3:47:11 Puerto Denia (USA) F50-54 (+)
1493 3:47:14 Marshall Jonathan (USA) M40-44 (+)
1488 3:47:15 Chen Qing (USA) M35-39 (+)
1586 3:47:16 Patrick Andrea (USA) F40-44 (+)
1530 3:47:17 Mikeska Rick (USA) M60-64 (+)
1411 3:47:18 Cross Natalie (USA) F35-39 (+)
1526 3:47:18 Jeffery Blair (USA) M40-44 (+)
1549 3:47:19 Cerrato Jorge (USA) M45-49 (+)
1678 3:47:20 Hoekman Robert (USA) M70-74 (+)
1494 3:47:21 Chang George (USA) M45-49 (+)
1500 3:47:23 Elsey Andrew (USA) M20-24 (+)
1378 3:47:24 Murray Eddie (USA) M55-59 (+)
1433 3:47:24 Nightingale Andrea (USA) F35-39 (+)
1499 3:47:25 Partridge Lee (USA) M45-49 (+)
1573 3:47:30 Geilich Laura (USA) F20-24 (+)
1667 3:47:30 Varon Daniel (MEX) M45-49 (+)
1608 3:47:31 Nesmith Kevin (USA) M40-44 (+)
1583 3:47:32 Amirov Gara (USA) M30-34 (+)
1384 3:47:35 Roy Jean-Philippe (USA) M35-39 (+)
1538 3:47:37 Snyder Mackenzie (USA) F25-29 (+)
1579 3:47:37 Marquez Jason (USA) M35-39 (+)
1007 3:47:40 Oetken Katie (USA) F20-24 (+)
1556 3:47:40 Kuker Kasey (USA) F30-34 (+)
1317 3:47:41 Saxon Gregory (USA) M20-24 (+)
1635 3:47:41 Oxner Gary (USA) M30-34 (+)
1553 3:47:43 Backs Ayanna (USA) F35-39 (+)
1450 3:47:48 Vargas De La Rosa Fernando (MEX) M40-44 (+)
1536 3:47:49 Wallace Chris (USA) M45-49 (+)
1564 3:47:49 Sparks Juliee (USA) F35-39 (+)
1590 3:47:50 Hawthorne Chad (USA) M35-39 (+)
1533 3:47:53 Normand Emily (USA) F35-39 (+)
1458 3:47:54 Ramsauer Kurt (USA) M35-39 (+)
1509 3:47:54 Golovine Michelle (USA) F35-39 (+)
1557 3:47:55 Gehman Lauren (USA) F40-44 (+)
1471 3:47:56 Mendrek-Laske Mark (USA) M25-29 (+)
1474 3:47:56 Mcmeekin Maureen (USA) F25-29 (+)
1359 3:47:57 Geck Jonathan (USA) M30-34 (+)
1507 3:47:57 Saunders Brad (USA) M25-29 (+)
1169 3:48:00 Espinoza Santiago (MEX) M35-39 (+)
1721 3:48:02 Sanchez Oscar (USA) M45-49 (+)
1668 3:48:07 Cherches Igor (USA) M50-54 (+)
1576 3:48:08 Gregory Bruce (USA) M55-59 (+)
1614 3:48:13 Szydlowski Jeremy (USA) M30-34 (+)
1690 3:48:14 Gonzales Robert (USA) M45-49 (+)
1655 3:48:16 Dobson Monte (USA) M50-54 (+)
1495 3:48:17 Mettauer Scott (USA) M25-29 (+)
1537 3:48:20 Pear Jason (USA) M30-34 (+)
1605 3:48:20 Cheshier Kasey (USA) M30-34 (+)
1531 3:48:27 Chuter Chris (USA) M45-49 (+)
1671 3:48:28 Abaroa Jose (USA) M25-29 (+)
1443 3:48:29 Powitzky Kristine (USA) F40-44 (+)
1738 3:48:32 Beall Charles (USA) M25-29 (+)
1610 3:48:34 Pak Bliss (USA) F45-49 (+)
1596 3:48:35 Merriman Paul (USA) M55-59 (+)
1713 3:48:35 Hedgpeth Katlyn (USA) F20-24 (+)
1434 3:48:36 Cummings Robert (USA) M40-44 (+)
1518 3:48:36 Moralez Gabriel (USA) M35-39 (+)
1371 3:48:38 Vasquez Maria (USA) F30-34 (+)
1372 3:48:38 Smith Kim (USA) F40-44 (+)
1551 3:48:38 Sobus Mark (USA) M45-49 (+)
1496 3:48:39 Grinvalds Paul (USA) M55-59 (+)
1569 3:48:39 Visini Riccardo (USA) M40-44 (+)
1597 3:48:40 Brammer Deanna (USA) F40-44 (+)
1649 3:48:43 Efaw Alene (USA) F30-34 (+)
1477 3:48:44 Thomas Emily (USA) F20-24 (+)
1658 3:48:44 Bermensolo-Cutler Tereas (USA) F25-29 (+)
1787 3:48:45 Uttecht Carole (USA) F60-64 (+)
1591 3:48:46 Tracy Patrick (USA) M25-29 (+)
1633 3:48:46 Reynolds Rick (USA) M60-64 (+)
1740 3:48:47 Javeri Zahir (USA) M35-39 (+)
1612 3:48:48 Cappel Trevor (USA) M35-39 (+)
1774 3:48:49 Nino Israel (USA) M20-24 (+)
1741 3:48:50 Howard Alan (USA) M50-54 (+)
1548 3:48:51 Fredland John (USA) M40-44 (+)
1428 3:48:53 Jones Jay (USA) M25-29 (+)
1461 3:48:53 Tuttle Steven (USA) M40-44 (+)
1289 3:48:58 Duffy Keith (USA) M35-39 (+)
1508 3:49:00 Forrest George (CAN) M35-39 (+)
1672 3:49:01 Garza Sarah (USA) F25-29 (+)
1755 3:49:01 Reyes Jose Angel (USA) M40-44 (+)
1305 3:49:02 Allcott Taylor (USA) M25-29 (+)
1595 3:49:03 Snyder Melissa (USA) F25-29 (+)
1775 3:49:03 Bolt Katie (USA) F45-49 (+)
1416 3:49:05 Li Zhanqing (USA) F40-44 (+)
1457 3:49:06 Rendon Rudolph (USA) M45-49 (+)
1739 3:49:07 Blake Hugh (USA) M55-59 (+)
1502 3:49:08 Kirby Cara (USA) F25-29 (+)
1648 3:49:11 Holt Rusty (USA) M50-54 (+)
1673 3:49:11 Henriquez Eduardo (USA) M25-29 (+)
1567 3:49:14 Herod Leah (USA) F30-34 (+)
1617 3:49:14 Humphries Jamal (USA) M16-19 (+)
1546 3:49:16 Jackson David (USA) M35-39 (+)
1580 3:49:20 Laydevant Meri (USA) F40-44 (+)
1643 3:49:26 Copeland Kevin (USA) M40-44 (+)
1621 3:49:27 Huang Vicky (USA) F35-39 (+)
1510 3:49:28 King Sheldon (USA) M50-54 (+)
1640 3:49:28 Smith Stacy (USA) M55-59 (+)
1453 3:49:30 Wood Christopher (USA) M25-29 (+)
1476 3:49:30 Wilson Chad (USA) M40-44 (+)
1478 3:49:31 Anderson Grant (USA) M45-49 (+)
1758 3:49:32 Lewis Marcus (USA) M35-39 (+)
1467 3:49:34 Li Hao (USA) M35-39 (+)
1638 3:49:34 Ige Adun (USA) F40-44 (+)
1746 3:49:36 Kline Jerry (USA) M30-34 (+)
1681 3:49:38 Raber Jeff (USA) M50-54 (+)
1719 3:49:40 Ahmed Matt (USA) M35-39 (+)
1733 3:49:41 Zavala Luis (USA) M25-29 (+)
1630 3:49:43 Corrubia Kelly (USA) F35-39 (+)
1736 3:49:44 Linder Stefan (USA) M55-59 (+)
1663 3:49:46 Grahmann Shelley (USA) F30-34 (+)
1712 3:49:46 Arrazola Alvaro (USA) M50-54 (+)
1639 3:49:49 Maple Andrea (USA) F40-44 (+)
1676 3:49:49 Plum David (USA) M55-59 (+)
1693 3:49:54 Spruce Mark (USA) M50-54 (+)
1652 3:49:56 Thomas Tojo (USA) M35-39 (+)
1585 3:49:57 Patel Deepa (USA) F25-29 (+)
1593 3:49:59 Zacharias Jake (USA) M30-34 (+)
1511 3:50:01 Saravanos Costas (USA) M60-64 (+)
1460 3:50:02 Bendokas Jennifer (USA) F25-29 (+)
1613 3:50:02 Atkinson Paige (USA) F20-24 (+)
1688 3:50:02 Ingram Jen (USA) F35-39 (+)
1684 3:50:09 Mannheims Christoph (GER) M50-54 (+)
1636 3:50:11 Krainz Thomas (USA) M50-54 (+)
1773 3:50:12 Mahlenkamp Karin (USA) F35-39 (+)
1303 3:50:13 Chacon Richard (USA) M55-59 (+)
1704 3:50:15 Mitchell Vanessa (USA) F35-39 (+)
1603 3:50:16 Somma Larry (USA) M45-49 (+)
1618 3:50:17 King Daniel (USA) M20-24 (+)
1705 3:50:17 Simpson Christina (USA) F30-34 (+)
1702 3:50:22 Onda Hitoshi (USA) M55-59 (+)
1351 3:50:23 Li Hongyou (USA) M45-49 (+)
1498 3:50:33 Gates Paige (USA) F50-54 (+)
1592 3:50:33 Ashy Brian (USA) M35-39 (+)
1703 3:50:38 Stone Terri (USA) F40-44 (+)
1700 3:50:40 Harris Jason (USA) M35-39 (+)
1588 3:50:42 Mizer Lesley (USA) F30-34 (+)
1641 3:50:42 Koehler D Jody (USA) F45-49 (+)
1714 3:50:42 Fernandez Juan (MEX) M45-49 (+)
1674 3:50:44 Spears Wendy (USA) F45-49 (+)
1692 3:50:45 Rone Aaron (USA) M20-24 (+)
1616 3:50:46 Augustin Anish (USA) M30-34 (+)
1656 3:50:47 Phelps Stephanie (USA) F45-49 (+)
1670 3:50:47 Hammel Dawn (USA) F45-49 (+)
1806 3:50:47 Ball Gregory (USA) M30-34 (+)
1622 3:50:48 Reutzel Ron (USA) M50-54 (+)
1707 3:50:48 Emanuel Calvin (USA) M40-44 (+)
1487 3:50:49 Dietrich Lawrence (USA) M40-44 (+)
1735 3:50:52 Radney Chris (USA) M30-34 (+)
1626 3:50:53 Phillips Chris (USA) M30-34 (+)
1745 3:50:57 Meacham Christopher (USA) M45-49 (+)
1566 3:50:59 Strachan Steven (USA) M30-34 (+)
1915 3:50:59 Torres Sr. Neftaly (USA) M35-39 (+)
1926 3:51:01 Bruhn Reggie (USA) M55-59 (+)
1623 3:51:05 Pokala Hanumantha (USA) M35-39 (+)
1829 3:51:05 Sher Jaimes (USA) M50-54 (+)
1697 3:51:06 Christian Valerie (USA) F35-39 (+)
1483 3:51:08 Marom Daniel (USA) M25-29 (+)
1807 3:51:08 Comstock David (USA) M55-59 (+)
1744 3:51:10 Mcguirk Timothy (USA) M50-54 (+)
1794 3:51:10 Demuro Tenly (USA) F25-29 (+)
1647 3:51:12 Devore Dennis (USA) M45-49 (+)
1732 3:51:12 Brasuell George (USA) M40-44 (+)
1560 3:51:13 Arrambide Heriberto (MEX) M60-64 (+)
1781 3:51:13 Stewart David (USA) M60-64 (+)
1727 3:51:16 Septien Juan (USA) M35-39 (+)
1240 3:51:17 Guenther Rebecca (USA) F35-39 (+)
1920 3:51:17 Friday John (CAN) M55-59 (+)
1803 3:51:19 Perez Jose (USA) M35-39 (+)
1600 3:51:20 Hammond Barrington (USA) M55-59 (+)
1706 3:51:21 Davis Andrew (USA) M25-29 (+)
1788 3:51:21 Villalobos David (USA) M45-49 (+)
1653 3:51:24 Bergdolt Marian (USA) F50-54 (+)
1550 3:51:25 Rivero Marcela (USA) F25-29 (+)
1632 3:51:26 Lovato Santiago (USA) M35-39 (+)
1677 3:51:29 Gibbs Ike (USA) M40-44 (+)
1669 3:51:30 Alanis Guillermo (USA) M40-44 (+)
1620 3:51:32 Campbell Jeff (USA) M40-44 (+)
1631 3:51:33 Hudson Gary (USA) M35-39 (+)
1769 3:51:34 Steadman James (USA) M40-44 (+)
1584 3:51:35 Marquez Rodrigo (USA) M30-34 (+)
1619 3:51:36 Finnegan Becky (USA) F40-44 (+)
1797 3:51:36 Gonzalez Rudy (USA) M45-49 (+)
1578 3:51:37 Rodriguez Stephanie (USA) F30-34 (+)
1218 3:51:39 Lorca Sabina (USA) F30-34 (+)
1786 3:51:39 Medina Jared (USA) M35-39 (+)
1820 3:51:39 Cheriyan Nicole (USA) F35-39 (+)
1726 3:51:41 Elzubier Mohammed (USA) M20-24 (+)
1878 3:51:41 Young Michael (USA) M40-44 (+)
1694 3:51:42 Barta Timothy (USA) M35-39 (+)
1818 3:51:44 Clark Amy (USA) F35-39 (+)
1943 3:51:45 Messier Jessica (USA) F25-29 (+)
1577 3:51:46 Nichol Jana (USA) F40-44 (+)
1743 3:51:46 Graham Benjamin (USA) M30-34 (+)
1725 3:51:49 Navarro Aaron (USA) M40-44 (+)
1486 3:51:56 Anderson Grant (USA) M50-54 (+)
1644 3:51:56 Goodwin Paul (USA) M30-34 (+)
1759 3:51:56 Lu Ting-Chi (USA) F40-44 (+)
1696 3:51:57 Belanger Eric (USA) M40-44 (+)
1710 3:51:57 Miller Brett (USA) M35-39 (+)
1717 3:51:57 Hutchison Samantha (USA) F40-44 (+)
1777 3:51:58 Mason Michelle (USA) F35-39 (+)
1776 3:51:59 Mcknight Katherine (USA) F35-39 (+)
1760 3:52:01 Haley Christopher (USA) M40-44 (+)
1795 3:52:02 Detrick Danny (USA) M50-54 (+)
1543 3:52:03 Carter Diana (USA) F45-49 (+)
1687 3:52:03 Santamaria Catherine (USA) F40-44 (+)
1730 3:52:03 Bradley Iii Bill (USA) M30-34 (+)
1747 3:52:08 Garcia Mayans Aldrick (USA) M35-39 (+)
1756 3:52:08 Capriotti Karin (USA) F40-44 (+)
1757 3:52:08 Fluker Elizabeth (USA) F45-49 (+)
1974 3:52:08 Smith Dan (USA) M40-44 (+)
1916 3:52:09 Huvaz Ozkan (USA) M40-44 (+)
1754 3:52:10 Salinas Allison (USA) F30-34 (+)
1833 3:52:10 Fite Rebecca (USA) F30-34 (+)
1785 3:52:11 Sandoval George (USA) M70-74 (+)
1862 3:52:11 Lopez Paul (USA) M50-54 (+)
1606 3:52:13 Amador Jose (USA) M55-59 (+)
1780 3:52:14 Gable Dempsey (USA) M60-64 (+)
1837 3:52:14 Clark Joshua (USA) M40-44 (+)
1838 3:52:14 Walker Robbie (USA) M35-39 (+)
2003 3:52:14 Siemers Shawn (USA) M45-49 (+)
1752 3:52:18 Mallett Steve (USA) M50-54 (+)
1341 3:52:19 Kelly Kevin (USA) M35-39 (+)
1683 3:52:19 Silva Radia (USA) F40-44 (+)
1762 3:52:19 Rios Jr Arturo (USA) M45-49 (+)
2009 3:52:23 Edgerton Tracy (USA) M50-54 (+)
1715 3:52:26 Buckley Yulia (USA) F40-44 (+)
1804 3:52:26 Ng Janice (USA) F30-34 (+)
1832 3:52:27 Bettison Erin (USA) F30-34 (+)
1852 3:52:30 Mcclelland Lindsay (USA) F25-29 (+)
1737 3:52:31 Shin David (USA) M50-54 (+)
1558 3:52:36 Cole Daniel (USA) M25-29 (+)
1764 3:52:38 Pepper Ryan (USA) M25-29 (+)
1716 3:52:39 Troutman Bryan (USA) M50-54 (+)
1607 3:52:40 Hernandez Abraham (USA) M45-49 (+)
1860 3:52:40 Dela Cruz Miguelito (USA) M45-49 (+)
1828 3:52:42 Paredes Mirella (MEX) F35-39 (+)
1661 3:52:43 Elizondo Juan (USA) M50-54 (+)
1682 3:52:44 Wargel Tim (USA) M50-54 (+)
1731 3:52:44 Dieckmann Volker (USA) M45-49 (+)
1930 3:52:44 Rodas Blanca (USA) F30-34 (+)
1689 3:52:46 Hill Ashley (USA) F40-44 (+)
1728 3:52:46 Hobeika Christine (USA) F45-49 (+)
1821 3:52:46 Henze Matthias (USA) M50-54 (+)
1657 3:52:48 Valle Marco (USA) M30-34 (+)
1805 3:52:49 Waggenspack James (USA) M35-39 (+)
1865 3:52:50 Frye John (USA) M30-34 (+)
2035 3:52:51 Bolanos Demetrio (USA) M55-59 (+)
1615 3:52:52 White Nick (USA) M35-39 (+)
1563 3:52:53 Constantino Cara (USA) F25-29 (+)
1913 3:52:54 Patterson Nisha (USA) F40-44 (+)
1885 3:52:58 Ackerley Lee (USA) M25-29 (+)
1925 3:52:59 Braun Kelly (USA) F40-44 (+)
1936 3:52:59 Avina Juan (USA) M30-34 (+)
2048 3:52:59 Doyle Linda (USA) F50-54 (+)
1909 3:53:00 Martinez Victor (USA) M40-44 (+)
1783 3:53:01 Ye Enstin (USA) F25-29 (+)
1899 3:53:01 Garcia Stacy (USA) F40-44 (+)
1801 3:53:02 Fullerton Stephen (USA) M55-59 (+)
1971 3:53:02 Stone Trey (USA) M45-49 (+)
1849 3:53:05 Kapitz Martha (USA) F40-44 (+)
1952 3:53:05 Prelle Warren (USA) M40-44 (+)
1869 3:53:06 Chapman Wayne (USA) M35-39 (+)
1665 3:53:07 Pedersen Perla (USA) F30-34 (+)
1831 3:53:08 Kallus Stephen (USA) M40-44 (+)
1824 3:53:12 Santi Barbara (USA) F40-44 (+)
1877 3:53:12 Hinojosa Hermes (USA) M40-44 (+)
1957 3:53:13 Stanley Peter (USA) M40-44 (+)
1861 3:53:14 Abusamra Ilse (USA) F40-44 (+)
1825 3:53:16 Chaney John (USA) M30-34 (+)
1839 3:53:16 Tang Trong (USA) M40-44 (+)
1763 3:53:17 Robertson Cindy (USA) F45-49 (+)
1901 3:53:17 Lueth Frank (USA) M35-39 (+)
1810 3:53:18 Yuzuki Hiroyuki (USA) M35-39 (+)
1864 3:53:18 Cain Arburn (USA) F45-49 (+)
1890 3:53:18 Ginavan Tom (USA) M55-59 (+)
1407 3:53:20 Franco Alejandro (USA) M35-39 (+)
1751 3:53:22 Lynch Catherine (USA) F25-29 (+)
1811 3:53:22 Leathers Dean (USA) M30-34 (+)
1506 3:53:23 Colmenares Jorge (USA) M35-39 (+)
1830 3:53:23 Ruiz Sandra (USA) F40-44 (+)
1871 3:53:25 Wilson Adam (USA) M35-39 (+)
1582 3:53:26 Woodfolk Drew (USA) M40877 (+)
1815 3:53:26 Wisner Jimmy (USA) M35-39 (+)
1429 3:53:27 Nielsen Kristian (USA) M25-29 (+)
1969 3:53:27 Fairfield David (USA) M40-44 (+)
1685 3:53:28 Galvan Juan (USA) M40-44 (+)
1698 3:53:30 Culpepper Christopher (USA) M50-54 (+)
1790 3:53:30 Molina Carlos (USA) M45-49 (+)
1847 3:53:30 Thompson James (USA) M35-39 (+)
1749 3:53:32 Garcia Lexy (USA) F30-34 (+)
1654 3:53:33 Conti Thierry (USA) M30-34 (+)
1792 3:53:33 Thornhill Annie (USA) F30-34 (+)
1822 3:53:33 Nichols Nancy (USA) F45-49 (+)
1908 3:53:37 Phinney Jennifer (USA) F35-39 (+)
1950 3:53:39 Norton Kirk (USA) M45-49 (+)
2030 3:53:39 Gomez Samuel (USA) M25-29 (+)
1748 3:53:40 Martucci Rich (USA) M60-64 (+)
1850 3:53:41 Benhammou David (USA) M25-29 (+)
1980 3:53:42 Thomas Ed (USA) M45-49 (+)
1902 3:53:46 Jacobson Gwen (USA) F55-59 (+)
1767 3:53:51 Dyalsingh Harold (USA) M45-49 (+)
1951 3:53:51 Dewey Rich (USA) M45-49 (+)
1939 3:53:52 Koush Greg (USA) M35-39 (+)
1809 3:53:54 Pena Alonso Cecilia (USA) F40-44 (+)
1888 3:53:54 Mahoney Matt (USA) M35-39 (+)
1900 3:53:54 Chapman Kim (USA) F45-49 (+)
1841 3:53:55 Vandagriff Tim (USA) M60-64 (+)
1904 3:53:55 Becker Randy (USA) M25-29 (+)
1819 3:54:00 Adame Max (USA) M30-34 (+)
1953 3:54:00 Nguyen Peter (USA) M35-39 (+)
1625 3:54:02 Handler Ariel (USA) M30-34 (+)
1990 3:54:03 Kellagher Caroline (USA) F25-29 (+)
1970 3:54:04 Parsley Kenneth (USA) M30-34 (+)
2000 3:54:04 Shremshock Mikala (USA) F30-34 (+)
1349 3:54:06 Mazurkewicz Anthony (USA) M40-44 (+)
2045 3:54:07 Vicknair Shane (USA) M45-49 (+)
1895 3:54:08 Stahl Benjamin (USA) M30-34 (+)
1993 3:54:09 Wrobel Michael (USA) M25-29 (+)
1802 3:54:11 Asprah-Cantu Kris Aleli (USA) F25-29 (+)
1853 3:54:11 Spoor Jeff (USA) M40-44 (+)
1836 3:54:13 Gomez Montalvo Carlos (FRA) M55-59 (+)
1883 3:54:15 Emerson Kristin (USA) F45-49 (+)
2061 3:54:15 Betancourt Raul (USA) M25-29 (+)
2097 3:54:15 Kronjaeger Jim (USA) M55-59 (+)
1779 3:54:17 Yamamoto Hirofumi (USA) M45-49 (+)
2007 3:54:19 Mixon Esmeralda (USA) F45-49 (+)
1575 3:54:20 Odom Kristi (USA) F35-39 (+)
1955 3:54:20 Craig Mike (USA) M55-59 (+)
1827 3:54:21 Huang Robert (USA) M40-44 (+)
1859 3:54:21 Vega Francisco (USA) M30-34 (+)
1870 3:54:22 Long Paige (USA) F50-54 (+)
1887 3:54:22 Abbas Michael (USA) M50-54 (+)
1983 3:54:22 Westfall Kevin (USA) M50-54 (+)
1998 3:54:22 Horton Elizabeth (USA) F45-49 (+)
1624 3:54:23 Cannizzo James (USA) M55-59 (+)
1724 3:54:23 Cholometes Charolette (USA) F35-39 (+)
1816 3:54:23 Barbee Kristie (USA) F50-54 (+)
1872 3:54:23 Peltier Randall (USA) M45-49 (+)
1866 3:54:24 Du Toit Gideon (USA) M40-44 (+)
1742 3:54:27 Walther Benjamin (USA) M30-34 (+)
1987 3:54:27 Buxton Wanda (USA) F50-54 (+)
1598 3:54:28 Conrad-Davis Ryan (USA) M30-34 (+)
1876 3:54:28 Brauer Cope Julie (USA) F45-49 (+)
2082 3:54:28 Belloso Alvaro (USA) M40-44 (+)
1599 3:54:31 Skahn Hanna (USA) F20-24 (+)
1840 3:54:31 Shek May (USA) F35-39 (+)
1940 3:54:32 Mills Courtney (USA) F25-29 (+)
1522 3:54:35 Le Thai (USA) M50-54 (+)
1823 3:54:35 Ton Steve (USA) M45-49 (+)
1884 3:54:35 Smalley Steve (USA) M60-64 (+)
1903 3:54:40 Chavez Ruben (USA) M40-44 (+)
1846 3:54:42 Albright Janeth (USA) F40-44 (+)
1929 3:54:42 Sandor Aniko (USA) F45-49 (+)
1470 3:54:43 Lazarus Zally (USA) M25-29 (+)
1729 3:54:44 Norwood Donald (USA) M45-49 (+)
1863 3:54:44 Schumann Marrika (USA) F40-44 (+)
1875 3:54:44 Raney Todd (USA) M45-49 (+)
1927 3:54:44 Shroff Monica (USA) F25-29 (+)
1666 3:54:45 Villamar Gustavo (USA) M30-34 (+)
1944 3:54:47 Cordova Kristina (USA) F40-44 (+)
2040 3:54:48 Agar Timothy (USA) M50-54 (+)
1699 3:54:49 Liu Yan (USA) F45-49 (+)
1701 3:54:49 Zhou Yi (USA) M40-44 (+)
1817 3:54:56 Betancourt Erik (MEX) M35-39 (+)
1718 3:54:59 Rhode Mark (USA) M45-49 (+)
1843 3:54:59 Luby Brian (USA) M25-29 (+)
1855 3:55:00 Benton Emilia (USA) F25-29 (+)
1527 3:55:01 Parker Michael (USA) M40-44 (+)
1835 3:55:01 Mcdermid Krista (USA) F35-39 (+)
1880 3:55:01 Siappas George (USA) M40-44 (+)
1958 3:55:01 Ruiz Cristal (MEX) F35-39 (+)
1906 3:55:03 Smith Dean (USA) M45-49 (+)
2062 3:55:06 Moore Brendan (USA) M50-54 (+)
2114 3:55:07 Vest Brent (USA) M30-34 (+)
2028 3:55:08 Hahn Melissa (USA) F30-34 (+)
2195 3:55:08 Costello Stephen (USA) M60-64 (+)
1514 3:55:09 Swearingen Greg (USA) M40-44 (+)
1879 3:55:09 Andrae Dana (USA) F45-49 (+)
1881 3:55:14 Ferreira Ana Luiza (USA) F30-34 (+)
1979 3:55:15 Herrera Jr. Sergio (USA) M30-34 (+)
2193 3:55:16 Fuentes Pineiro Cecilia (MEX) F50-54 (+)
1938 3:55:17 Glatstein Randy (USA) M45-49 (+)
1984 3:55:20 Turner Scott (USA) M35-39 (+)
1844 3:55:21 Loginov Arthur (USA) M55-59 (+)
1962 3:55:21 Cepero Carlos (USA) M50-54 (+)
1798 3:55:22 Meitz Amber (USA) F30-34 (+)
1834 3:55:22 Lafuente Elva (USA) F50-54 (+)
1945 3:55:23 Mercer Robert (USA) M55-59 (+)
2158 3:55:24 Lopez Federico (MEX) M45-49 (+)
1941 3:55:25 Austin Brian (USA) M40-44 (+)
2050 3:55:26 Korsten Lisa (USA) F45-49 (+)
1868 3:55:27 Dang Danny (USA) M25-29 (+)
1276 3:55:29 Herrera Victor (USA) M25-29 (+)
1995 3:55:29 Haines Andrew (USA) M25-29 (+)
1982 3:55:30 Smith Rebecca (USA) F20-24 (+)
1720 3:55:31 Hodge Will (USA) M35-39 (+)
1845 3:55:31 Adame Christopher (USA) M30-34 (+)
1892 3:55:33 Gutierrez Solis Flordemaria (MEX) F45-49 (+)
2002 3:55:34 Meyer Scott (USA) M30-34 (+)
2025 3:55:34 Moreno Marissa (USA) F40-44 (+)
1373 3:55:39 Whitten Darcy (USA) M40-44 (+)
1691 3:55:39 Patterson Greg (GBR) M40-44 (+)
1874 3:55:40 Alba Palacios Ricardo (MEX) M40-44 (+)
1918 3:55:40 Meyer Michelle (USA) F40-44 (+)
1931 3:55:41 Hailey Paul (USA) M40-44 (+)
1571 3:55:43 Mcluskie Amy (USA) F25-29 (+)
1594 3:55:43 Waldron Connor (USA) M20-24 (+)
2058 3:55:43 Herrin Tim (USA) M45-49 (+)
2032 3:55:44 Putney Kate (USA) F25-29 (+)
2086 3:55:44 Arencibia Victor (USA) M50-54 (+)
1778 3:55:45 Gunnion Neil (USA) M35-39 (+)
2124 3:55:46 Medina Jose (USA) M40-44 (+)
1907 3:55:49 Wood Justin (USA) M45-49 (+)
2091 3:55:49 Beltz Matthew (USA) M30-34 (+)
2033 3:55:50 Pabon Maria (USA) F25-29 (+)
2152 3:55:53 King Sidney (USA) M25-29 (+)
1949 3:55:54 Hoang Hung (USA) M50-54 (+)
2138 3:55:54 Chattley Anthony (USA) M35-39 (+)
1800 3:55:58 Combs Kyle (USA) M30-34 (+)
2037 3:55:58 Foder Danielle (USA) F45-49 (+)
1770 3:56:00 Wilson Todd (USA) M45-49 (+)
2029 3:56:00 Wen-Waldron Ayon (USA) F45-49 (+)
2133 3:56:00 Sherman Michelle (USA) F50-54 (+)
1659 3:56:02 Johnson Danielle (USA) F30-34 (+)
1891 3:56:04 Cohen Michael (USA) M25-29 (+)
1708 3:56:05 Katz Lisa (USA) F40-44 (+)
1772 3:56:05 Swynenberg Kasey (USA) F20-24 (+)
1898 3:56:05 Gilmore Scott (USA) M40-44 (+)
1937 3:56:06 Barnett Chad (USA) M35-39 (+)
2184 3:56:06 Buti Gina (USA) F55-59 (+)
2087 3:56:07 Akhtari Mani (USA) M30-34 (+)
2063 3:56:09 Martinez Jose (MEX) M30-34 (+)
1933 3:56:10 Allison Jill (USA) F45-49 (+)
1734 3:56:11 Sease Bob (USA) M60-64 (+)
1858 3:56:11 Ellorimo Jun (USA) M40-44 (+)
1919 3:56:11 Balbuena Francisco (USA) M60-64 (+)
1996 3:56:12 Warwick Honey (USA) F40-44 (+)
1934 3:56:13 Ramirez Joe (USA) M60-64 (+)
2075 3:56:14 Riemer Jacob (USA) M30-34 (+)
1954 3:56:15 Fowlkes Mandi (USA) F40-44 (+)
1935 3:56:17 Wells Peggy (USA) F40-44 (+)
2036 3:56:17 Wehner Stephen (USA) M25-29 (+)
2012 3:56:18 Pherigo Josh (USA) M25-29 (+)
1897 3:56:20 Chen Peng (USA) M50-54 (+)
1946 3:56:23 Little Jenny (USA) F30-34 (+)
2113 3:56:24 Caesar Matthew (USA) M40-44 (+)
2187 3:56:25 Collins Erica (FRA) F35-39 (+)
1627 3:56:29 Arnold Emily (USA) F35-39 (+)
1642 3:56:29 Luo Sheng (USA) M40-44 (+)
1814 3:56:30 Sanchez Martin (USA) M50-54 (+)
1959 3:56:30 Rufael Tecle (USA) M50-54 (+)
2226 3:56:30 Kennedy Bob (USA) M65-69 (+)
2056 3:56:31 Chyi Stanley (USA) M30-34 (+)
2110 3:56:33 Rodriguez Juan (USA) M35-39 (+)
2212 3:56:33 Wright Kendrin (USA) M40-44 (+)
2008 3:56:36 Russell Katherine (USA) F25-29 (+)
2054 3:56:36 Smith Gary (USA) M55-59 (+)
1856 3:56:37 Colwell Katelyn (USA) F25-29 (+)
2043 3:56:38 Buck Adam (USA) M30-34 (+)
2066 3:56:38 Neighbors Allyson (USA) F40-44 (+)
2071 3:56:47 Tinnell Sharon (USA) F50-54 (+)
2178 3:56:49 Portilla Sara (USA) F35-39 (+)
2046 3:56:50 Senter Scott (USA) M50-54 (+)
2070 3:56:50 Hoang Steffanie (USA) F25-29 (+)
2275 3:56:50 Ruibal John (USA) M50-54 (+)
1604 3:56:51 Gonzalez Padilla Luis Antonio (MEX) M40-44 (+)
2074 3:56:52 Goss Brandon (USA) M40-44 (+)
2288 3:56:54 Schaefer Eric (USA) M50-54 (+)
1968 3:56:59 Vazquez Ruben (USA) M40-44 (+)
1948 3:57:00 Kavanaugh Anna (USA) F30-34 (+)
2005 3:57:01 Bourgeois Scott (USA) M40-44 (+)
2129 3:57:01 Ngumbu Faida (USA) F30-34 (+)
1961 3:57:02 Roman Lisandro (USA) M45-49 (+)
1988 3:57:02 Forkner James (USA) M25-29 (+)
2031 3:57:02 Ramsey Jones (USA) M50-54 (+)
1771 3:57:04 Long Hui (USA) M40-44 (+)
1986 3:57:04 Rhee Walter (USA) M40-44 (+)
1992 3:57:04 Cao Tony (USA) M30-34 (+)
2132 3:57:05 Blomquist Peter (USA) M45-49 (+)
2123 3:57:06 Otto Daniel (USA) M30-34 (+)
2254 3:57:07 Horak Matt (USA) M35-39 (+)
1928 3:57:09 Landon Ivonne (USA) F40-44 (+)
1766 3:57:10 Sandifer Cassie (USA) F25-29 (+)
2057 3:57:10 Macnaughton Meredith (USA) F35-39 (+)
1789 3:57:11 Bails Christopher (USA) M30-34 (+)
1854 3:57:12 Lopez Roberto Hiram (MEX) M35-39 (+)
1956 3:57:13 Bolanos Caitlin (USA) F25-29 (+)
2322 3:57:14 Ballmann Philip (USA) M55-59 (+)
1541 3:57:16 Douaire Daniel (CAN) M55-59 (+)
2020 3:57:16 Lovato Melissa (USA) F25-29 (+)
2105 3:57:18 Mcgeehon David (USA) M45-49 (+)
2274 3:57:18 Mcdonald Mark (USA) M40-44 (+)
2111 3:57:19 Leon De La Barra Carmen (MEX) F40-44 (+)
2117 3:57:20 Schaschl Leslie (USA) F55-59 (+)
2154 3:57:20 Caldwell Shelley (USA) F45-49 (+)
2183 3:57:20 Senftleber Dave (USA) M40-44 (+)
1976 3:57:22 Nieves Barrera Victor (MEX) M45-49 (+)
2161 3:57:22 Drvostep Diana (USA) F30-34 (+)
2019 3:57:23 Harris Mark (USA) M35-39 (+)
1966 3:57:24 Williamson David (USA) M25-29 (+)
2065 3:57:24 Coon James (USA) M55-59 (+)
2026 3:57:25 Hoang Peter (USA) M30-34 (+)
2141 3:57:25 Wisenbaker Don (USA) M45-49 (+)
1889 3:57:26 Emfinger Luke (USA) M35-39 (+)
1991 3:57:27 Pearson Jenna (USA) F30-34 (+)
1645 3:57:29 Johnson Kuldeep (USA) F45-49 (+)
2079 3:57:30 Tydlacka Jonathan (USA) M35-39 (+)
2044 3:57:31 Jacobson Michael (USA) M45-49 (+)
1964 3:57:33 Nelson Mindy (USA) F40-44 (+)
2196 3:57:33 Anselmo Ron (USA) M55-59 (+)
1924 3:57:34 Salinas Anjy (USA) F40-44 (+)
1965 3:57:34 Soto Bridget (USA) F45-49 (+)
2038 3:57:34 Dai Victoria (USA) F30-34 (+)
2170 3:57:36 Brown Keith (USA) M50-54 (+)
2331